UAE242 CYYZ-OMDB
Flight info
| Callsign | UAE242 |
|---|---|
| Flight time | N/A |
| Altitude | 29000 |
| Route | DEDKI5TULEG/15L TULEG WAYGO GFALS TEMPR ALLEX NICSO 4850N H4940 H4930 H4920 KOGAD BIMGO TAKAS ALUTA ADSET LEMKA BEBIX VALKU TIS MEBAK GIPNO BALSI OBIGO ROBEX LAPRI MOGBO UPDIN ARBUM BELIX SALUN N705 MMA L613 KIVIL N710 TAKRI M720 FYM M872 WEJ L604 GAS L308 DAROR P559 VUTEB |
| Aircraft | B77W/H-SDE1E2E3FGHIJ2J3J4J5M1RWXY/LB1D1 |
Departure
| Time | N/A |
|---|---|
| Airport | Toronto Pearson International Airport (CYYZ) |
Arrival
| Time | 2026-04-26 07:05 |
|---|---|
| Airport | Dubai International Airport (OMDB) |
| Time | Latitude | Longitude | Altitude | Speed | Heading |
|---|---|---|---|---|---|
| 2026-04-25 22:04 | 47.94447 | -20.12252 | 29080 ft | 508 kts | 119° |
| 2026-04-25 22:04 | 47.92675 | -20.07800 | 29075 ft | 509 kts | 119° |
| 2026-04-25 22:04 | 47.89073 | -19.98728 | 29068 ft | 507 kts | 119° |
| 2026-04-25 22:05 | 47.85493 | -19.89717 | 29070 ft | 507 kts | 119° |
| 2026-04-25 22:05 | 47.81941 | -19.80708 | 29066 ft | 505 kts | 119° |
| 2026-04-25 22:06 | 47.78431 | -19.71740 | 29070 ft | 504 kts | 119° |
| 2026-04-25 22:06 | 47.74912 | -19.62725 | 29069 ft | 506 kts | 119° |
| 2026-04-25 22:07 | 47.71996 | -19.55221 | 29070 ft | 502 kts | 119° |
| 2026-04-25 22:07 | 47.67950 | -19.44712 | 29071 ft | 501 kts | 119° |
| 2026-04-25 22:08 | 47.64493 | -19.35723 | 29070 ft | 503 kts | 119° |
| 2026-04-25 22:08 | 47.61056 | -19.26777 | 29063 ft | 500 kts | 120° |
| 2026-04-25 22:09 | 47.57629 | -19.17822 | 29065 ft | 499 kts | 120° |
| 2026-04-25 22:09 | 47.54232 | -19.08936 | 29071 ft | 497 kts | 120° |
| 2026-04-25 22:10 | 47.50838 | -19.00068 | 29069 ft | 499 kts | 120° |
| 2026-04-25 22:10 | 47.47442 | -18.91203 | 29072 ft | 499 kts | 120° |
| 2026-04-25 22:11 | 47.44032 | -18.82277 | 29071 ft | 499 kts | 120° |
| 2026-04-25 22:11 | 47.40661 | -18.73366 | 29076 ft | 497 kts | 120° |
| 2026-04-25 22:12 | 47.37324 | -18.64487 | 29076 ft | 496 kts | 120° |
| 2026-04-25 22:12 | 47.34550 | -18.57118 | 29082 ft | 497 kts | 120° |
| 2026-04-25 22:13 | 47.30637 | -18.46696 | 29081 ft | 495 kts | 120° |
| 2026-04-25 22:13 | 47.27337 | -18.37865 | 29083 ft | 496 kts | 120° |
| 2026-04-25 22:14 | 47.24041 | -18.29013 | 29083 ft | 494 kts | 120° |
| 2026-04-25 22:14 | 47.20754 | -18.20143 | 29086 ft | 492 kts | 120° |
| 2026-04-25 22:15 | 47.17492 | -18.11306 | 29086 ft | 494 kts | 120° |
| 2026-04-25 22:16 | 47.12633 | -17.98148 | 29092 ft | 492 kts | 120° |
| 2026-04-25 22:16 | 47.09381 | -17.89364 | 29094 ft | 491 kts | 120° |
| 2026-04-25 22:17 | 47.06112 | -17.80557 | 29101 ft | 491 kts | 120° |
| 2026-04-25 22:17 | 47.02869 | -17.71791 | 29102 ft | 492 kts | 120° |
| 2026-04-25 22:18 | 46.99637 | -17.63029 | 29110 ft | 490 kts | 120° |
| 2026-04-25 22:18 | 46.96414 | -17.54242 | 29110 ft | 489 kts | 120° |
| 2026-04-25 22:19 | 46.93234 | -17.45517 | 29114 ft | 489 kts | 120° |
| 2026-04-25 22:19 | 46.90057 | -17.36748 | 29119 ft | 488 kts | 120° |
| 2026-04-25 22:20 | 46.86903 | -17.28011 | 29123 ft | 487 kts | 121° |
| 2026-04-25 22:20 | 46.83751 | -17.19271 | 29122 ft | 487 kts | 121° |
| 2026-04-25 22:21 | 46.80577 | -17.10446 | 29126 ft | 486 kts | 121° |
| 2026-04-25 22:21 | 46.77464 | -17.01768 | 29132 ft | 483 kts | 120° |
| 2026-04-25 22:22 | 46.74351 | -16.93103 | 29135 ft | 485 kts | 120° |
| 2026-04-25 22:22 | 46.71245 | -16.84440 | 29138 ft | 485 kts | 120° |
| 2026-04-25 22:23 | 46.68140 | -16.75759 | 29143 ft | 485 kts | 120° |
| 2026-04-25 22:23 | 46.65039 | -16.67071 | 29145 ft | 485 kts | 120° |
| 2026-04-25 22:24 | 46.61938 | -16.58358 | 29146 ft | 487 kts | 120° |
| 2026-04-25 22:24 | 46.58842 | -16.49659 | 29149 ft | 485 kts | 120° |
| 2026-04-25 22:25 | 46.55751 | -16.40937 | 29154 ft | 487 kts | 120° |
| 2026-04-25 22:25 | 46.52684 | -16.32234 | 29158 ft | 486 kts | 121° |
| 2026-04-25 22:26 | 46.49611 | -16.23500 | 29161 ft | 486 kts | 121° |
| 2026-04-25 22:26 | 46.46567 | -16.14814 | 29161 ft | 486 kts | 121° |
| 2026-04-25 22:27 | 46.43507 | -16.06057 | 29166 ft | 484 kts | 121° |
| 2026-04-25 22:27 | 46.40470 | -15.97364 | 29168 ft | 484 kts | 121° |
| 2026-04-25 22:28 | 46.37443 | -15.88703 | 29168 ft | 485 kts | 121° |
| 2026-04-25 22:28 | 46.34405 | -15.79960 | 29172 ft | 486 kts | 121° |
| 2026-04-25 22:29 | 46.31384 | -15.71255 | 29167 ft | 485 kts | 121° |
| 2026-04-25 22:29 | 46.28380 | -15.62536 | 29173 ft | 486 kts | 121° |
| 2026-04-25 22:30 | 46.23890 | -15.49456 | 29177 ft | 486 kts | 121° |
| 2026-04-25 22:30 | 46.21417 | -15.42219 | 29183 ft | 485 kts | 121° |
| 2026-04-25 22:31 | 46.17948 | -15.32051 | 29176 ft | 484 kts | 121° |
| 2026-04-25 22:31 | 46.14984 | -15.23360 | 29168 ft | 482 kts | 122° |
| 2026-04-25 22:32 | 46.12047 | -15.14701 | 29177 ft | 484 kts | 121° |
| 2026-04-25 22:32 | 46.09105 | -15.05988 | 29179 ft | 483 kts | 121° |
| 2026-04-25 22:33 | 46.06196 | -14.97296 | 29188 ft | 483 kts | 121° |
| 2026-04-25 22:33 | 46.03280 | -14.88606 | 29192 ft | 483 kts | 121° |
| 2026-04-25 22:34 | 46.00351 | -14.79896 | 29191 ft | 484 kts | 121° |
| 2026-04-25 22:34 | 45.97446 | -14.71266 | 29194 ft | 483 kts | 121° |
| 2026-04-25 22:35 | 45.94477 | -14.62515 | 29454 ft | 493 kts | 121° |
| 2026-04-25 22:35 | 45.92971 | -14.58079 | 30207 ft | 488 kts | 121° |
| 2026-04-25 22:35 | 45.91511 | -14.53743 | 31007 ft | 481 kts | 121° |
| 2026-04-25 22:36 | 45.90075 | -14.49475 | 31594 ft | 478 kts | 121° |
| 2026-04-25 22:36 | 45.88500 | -14.45326 | 32018 ft | 472 kts | 129° |
| 2026-04-25 22:36 | 45.86527 | -14.41628 | 32327 ft | 466 kts | 138° |
| 2026-04-25 22:36 | 45.84167 | -14.38456 | 32732 ft | 457 kts | 148° |
| 2026-04-25 22:37 | 45.81570 | -14.35977 | 33120 ft | 449 kts | 157° |
| 2026-04-25 22:37 | 45.78757 | -14.34170 | 33474 ft | 441 kts | 167° |
| 2026-04-25 22:37 | 45.75825 | -14.33089 | 33763 ft | 435 kts | 176° |
| 2026-04-25 22:37 | 45.72823 | -14.32757 | 34121 ft | 427 kts | 186° |
| 2026-04-25 22:38 | 45.69861 | -14.32760 | 34449 ft | 429 kts | 180° |
| 2026-04-25 22:38 | 45.66924 | -14.32275 | 34728 ft | 431 kts | 177° |
| 2026-04-25 22:38 | 45.63960 | -14.31676 | 34946 ft | 432 kts | 177° |
| 2026-04-25 22:38 | 45.60974 | -14.31067 | 35134 ft | 433 kts | 177° |
| 2026-04-25 22:39 | 45.58006 | -14.30462 | 35310 ft | 434 kts | 177° |
| 2026-04-25 22:39 | 45.55037 | -14.29868 | 35498 ft | 434 kts | 177° |
| 2026-04-25 22:39 | 45.52028 | -14.29270 | 35662 ft | 435 kts | 177° |
| 2026-04-25 22:39 | 45.49064 | -14.28682 | 35849 ft | 435 kts | 177° |
| 2026-04-25 22:40 | 45.46076 | -14.28096 | 36043 ft | 434 kts | 177° |
| 2026-04-25 22:40 | 45.43063 | -14.27512 | 36154 ft | 436 kts | 177° |
| 2026-04-25 22:40 | 45.40050 | -14.26928 | 36319 ft | 436 kts | 177° |
| 2026-04-25 22:40 | 45.37075 | -14.26355 | 36535 ft | 435 kts | 177° |
| 2026-04-25 22:41 | 45.34089 | -14.25781 | 36671 ft | 437 kts | 177° |
| 2026-04-25 22:41 | 45.31053 | -14.25204 | 36793 ft | 437 kts | 177° |
| 2026-04-25 22:41 | 45.28065 | -14.24645 | 36930 ft | 438 kts | 177° |
| 2026-04-25 22:41 | 45.25052 | -14.24084 | 37097 ft | 438 kts | 177° |
| 2026-04-25 22:42 | 45.22044 | -14.23523 | 37247 ft | 438 kts | 177° |
| 2026-04-25 22:42 | 45.19006 | -14.22961 | 37374 ft | 438 kts | 177° |
| 2026-04-25 22:42 | 45.16003 | -14.22405 | 37505 ft | 438 kts | 177° |
| 2026-04-25 22:42 | 45.12984 | -14.21851 | 37611 ft | 439 kts | 177° |
| 2026-04-25 22:43 | 45.06953 | -14.20753 | 37799 ft | 439 kts | 177° |
| 2026-04-25 22:43 | 45.00875 | -14.19650 | 38008 ft | 439 kts | 177° |
| 2026-04-25 22:44 | 44.94824 | -14.18560 | 38123 ft | 440 kts | 177° |
| 2026-04-25 22:44 | 44.88767 | -14.17470 | 38245 ft | 441 kts | 177° |
| 2026-04-25 22:45 | 44.85728 | -14.16922 | 38367 ft | 440 kts | 177° |
| 2026-04-25 22:45 | 44.82695 | -14.16374 | 38432 ft | 441 kts | 177° |
| 2026-04-25 22:45 | 44.76630 | -14.15293 | 38610 ft | 440 kts | 177° |
| 2026-04-25 22:46 | 44.70546 | -14.14217 | 38662 ft | 442 kts | 177° |
| 2026-04-25 22:46 | 44.64437 | -14.13146 | 38768 ft | 442 kts | 177° |
| 2026-04-25 22:47 | 44.58378 | -14.12102 | 38919 ft | 442 kts | 177° |
| 2026-04-25 22:47 | 44.52257 | -14.11054 | 39018 ft | 441 kts | 177° |
| 2026-04-25 22:48 | 44.46172 | -14.10016 | 39094 ft | 442 kts | 177° |
| 2026-04-25 22:48 | 44.40098 | -14.08971 | 39104 ft | 444 kts | 177° |
| 2026-04-25 22:49 | 44.33964 | -14.07918 | 39156 ft | 442 kts | 177° |
| 2026-04-25 22:49 | 44.27869 | -14.06870 | 39187 ft | 443 kts | 177° |
| 2026-04-25 22:50 | 44.21765 | -14.05817 | 39203 ft | 443 kts | 177° |
| 2026-04-25 22:50 | 44.15633 | -14.04759 | 39218 ft | 443 kts | 177° |
| 2026-04-25 22:51 | 44.09515 | -14.03724 | 39224 ft | 444 kts | 177° |
| 2026-04-25 22:51 | 44.03416 | -14.02707 | 39213 ft | 444 kts | 177° |
| 2026-04-25 22:52 | 43.97274 | -14.01688 | 39216 ft | 445 kts | 177° |
| 2026-04-25 22:52 | 43.92166 | -14.00830 | 39204 ft | 443 kts | 177° |
| 2026-04-25 22:53 | 43.85030 | -13.99614 | 39222 ft | 445 kts | 177° |
| 2026-04-25 22:53 | 43.78890 | -13.98570 | 39218 ft | 444 kts | 177° |
| 2026-04-25 22:54 | 43.72767 | -13.97542 | 39224 ft | 445 kts | 177° |
| 2026-04-25 22:54 | 43.66613 | -13.96503 | 39228 ft | 445 kts | 177° |
| 2026-04-25 22:55 | 43.60468 | -13.95458 | 39219 ft | 445 kts | 177° |
| 2026-04-25 22:55 | 43.54351 | -13.94430 | 39219 ft | 445 kts | 177° |
| 2026-04-25 22:56 | 43.48210 | -13.93312 | 39205 ft | 448 kts | 172° |
| 2026-04-25 22:56 | 43.42306 | -13.90360 | 39210 ft | 458 kts | 154° |
| 2026-04-25 22:57 | 43.37231 | -13.85038 | 39216 ft | 468 kts | 136° |
| 2026-04-25 22:57 | 43.33487 | -13.77671 | 39205 ft | 477 kts | 118° |
| 2026-04-25 22:58 | 43.31565 | -13.68970 | 39211 ft | 483 kts | 100° |
| 2026-04-25 22:58 | 43.30713 | -13.59841 | 39215 ft | 485 kts | 98° |
| 2026-04-25 22:59 | 43.29877 | -13.50657 | 39217 ft | 486 kts | 98° |
| 2026-04-25 22:59 | 43.29034 | -13.41481 | 39219 ft | 486 kts | 98° |
| 2026-04-25 23:00 | 43.28184 | -13.32315 | 39212 ft | 485 kts | 99° |
| 2026-04-25 23:00 | 43.27326 | -13.23142 | 39209 ft | 485 kts | 99° |
| 2026-04-25 23:01 | 43.26465 | -13.14009 | 39210 ft | 485 kts | 99° |
| 2026-04-25 23:01 | 43.25599 | -13.04911 | 39211 ft | 484 kts | 99° |
| 2026-04-25 23:02 | 43.24725 | -12.95811 | 39215 ft | 483 kts | 99° |
| 2026-04-25 23:02 | 43.23845 | -12.86717 | 39213 ft | 483 kts | 98° |
| 2026-04-25 23:03 | 43.22956 | -12.77612 | 39216 ft | 483 kts | 98° |
| 2026-04-25 23:03 | 43.22059 | -12.68505 | 39214 ft | 483 kts | 98° |
| 2026-04-25 23:04 | 43.21307 | -12.60916 | 39216 ft | 482 kts | 98° |
| 2026-04-25 23:04 | 43.20245 | -12.50304 | 39087 ft | 482 kts | 98° |
| 2026-04-25 23:05 | 43.19792 | -12.45801 | 39334 ft | 479 kts | 98° |
| 2026-04-25 23:05 | 43.19336 | -12.41292 | 39206 ft | 480 kts | 98° |
| 2026-04-25 23:05 | 43.18418 | -12.32277 | 39218 ft | 480 kts | 99° |
| 2026-04-25 23:06 | 43.17492 | -12.23242 | 39214 ft | 480 kts | 99° |
| 2026-04-25 23:06 | 43.16555 | -12.14180 | 39216 ft | 481 kts | 99° |
| 2026-04-25 23:07 | 43.16082 | -12.09664 | 39110 ft | 481 kts | 98° |
| 2026-04-25 23:07 | 43.15623 | -12.05193 | 39238 ft | 475 kts | 98° |
| 2026-04-25 23:07 | 43.14682 | -11.96229 | 39330 ft | 475 kts | 98° |
| 2026-04-25 23:08 | 43.13731 | -11.87240 | 39340 ft | 476 kts | 98° |
| 2026-04-25 23:08 | 43.12780 | -11.78319 | 39355 ft | 478 kts | 99° |
| 2026-04-25 23:09 | 43.11816 | -11.69349 | 39390 ft | 478 kts | 99° |
| 2026-04-25 23:09 | 43.10838 | -11.60311 | 39450 ft | 479 kts | 99° |
| 2026-04-25 23:10 | 43.09861 | -11.51361 | 39574 ft | 478 kts | 98° |
| 2026-04-25 23:10 | 43.08881 | -11.42439 | 39572 ft | 477 kts | 98° |
| 2026-04-25 23:11 | 43.07886 | -11.33450 | 39658 ft | 478 kts | 99° |
| 2026-04-25 23:11 | 43.06889 | -11.24514 | 39688 ft | 477 kts | 99° |
| 2026-04-25 23:12 | 43.05882 | -11.15542 | 39791 ft | 476 kts | 99° |
| 2026-04-25 23:12 | 43.04874 | -11.06635 | 39917 ft | 474 kts | 99° |
| 2026-04-25 23:13 | 43.03862 | -10.97756 | 39962 ft | 474 kts | 99° |
| 2026-04-25 23:13 | 43.02845 | -10.88896 | 40003 ft | 473 kts | 99° |
| 2026-04-25 23:14 | 43.01820 | -10.80031 | 40024 ft | 472 kts | 99° |
| 2026-04-25 23:14 | 43.00791 | -10.71190 | 40041 ft | 472 kts | 99° |
| 2026-04-25 23:15 | 42.99755 | -10.62351 | 40056 ft | 472 kts | 99° |
| 2026-04-25 23:15 | 42.98715 | -10.53540 | 40069 ft | 471 kts | 99° |
| 2026-04-25 23:16 | 42.97671 | -10.44750 | 40115 ft | 470 kts | 99° |
| 2026-04-25 23:16 | 42.96621 | -10.35973 | 40139 ft | 470 kts | 99° |
| 2026-04-25 23:17 | 42.95564 | -10.27198 | 40148 ft | 469 kts | 100° |
| 2026-04-25 23:17 | 42.94501 | -10.18434 | 40157 ft | 468 kts | 100° |
| 2026-04-25 23:18 | 42.93432 | -10.09668 | 40163 ft | 467 kts | 100° |
| 2026-04-25 23:18 | 42.92360 | -10.00942 | 40157 ft | 465 kts | 100° |
| 2026-04-25 23:19 | 42.91292 | -9.92303 | 40147 ft | 463 kts | 100° |
| 2026-04-25 23:19 | 42.90222 | -9.83707 | 40145 ft | 461 kts | 100° |
| 2026-04-25 23:20 | 42.89149 | -9.75139 | 40143 ft | 458 kts | 100° |
| 2026-04-25 23:20 | 42.88079 | -9.66649 | 40140 ft | 454 kts | 100° |
| 2026-04-25 23:21 | 42.87009 | -9.58209 | 40135 ft | 450 kts | 100° |
| 2026-04-25 23:21 | 42.85970 | -9.50067 | 40133 ft | 447 kts | 100° |
| 2026-04-25 23:22 | 42.84906 | -9.41777 | 40130 ft | 442 kts | 100° |
| 2026-04-25 23:23 | 42.83328 | -9.29568 | 40129 ft | 434 kts | 101° |
| 2026-04-25 23:23 | 42.82285 | -9.21553 | 40132 ft | 428 kts | 101° |
| 2026-04-25 23:24 | 42.81246 | -9.13622 | 40110 ft | 421 kts | 101° |
| 2026-04-25 23:24 | 42.80226 | -9.05876 | 40107 ft | 412 kts | 101° |
| 2026-04-25 23:24 | 42.79723 | -9.02068 | 39877 ft | 406 kts | 101° |
| 2026-04-25 23:25 | 42.79218 | -8.98256 | 38757 ft | 414 kts | 101° |
| 2026-04-25 23:25 | 42.78701 | -8.94378 | 37205 ft | 429 kts | 101° |
| 2026-04-25 23:25 | 42.78159 | -8.90315 | 35857 ft | 447 kts | 101° |
| 2026-04-25 23:25 | 42.77593 | -8.86080 | 35266 ft | 463 kts | 101° |
| 2026-04-25 23:26 | 42.77010 | -8.81735 | 35143 ft | 469 kts | 101° |
| 2026-04-25 23:26 | 42.75824 | -8.72935 | 35141 ft | 477 kts | 101° |
| 2026-04-25 23:27 | 42.74618 | -8.64033 | 35134 ft | 483 kts | 101° |
| 2026-04-25 23:27 | 42.73401 | -8.55100 | 35132 ft | 482 kts | 100° |
| 2026-04-25 23:28 | 42.72172 | -8.46142 | 35127 ft | 482 kts | 100° |
| 2026-04-25 23:28 | 42.70941 | -8.37225 | 35131 ft | 482 kts | 100° |
| 2026-04-25 23:29 | 42.69706 | -8.28321 | 35129 ft | 482 kts | 101° |
| 2026-04-25 23:29 | 42.68460 | -8.19400 | 35128 ft | 482 kts | 101° |
| 2026-04-25 23:30 | 42.67207 | -8.10485 | 35124 ft | 482 kts | 101° |
| 2026-04-25 23:30 | 42.65942 | -8.01527 | 35124 ft | 482 kts | 101° |
| 2026-04-25 23:31 | 42.64680 | -7.92651 | 35128 ft | 482 kts | 101° |
| 2026-04-25 23:31 | 42.63403 | -7.83722 | 35132 ft | 481 kts | 101° |
| 2026-04-25 23:32 | 42.62126 | -7.74838 | 35133 ft | 480 kts | 100° |
| 2026-04-25 23:32 | 42.60841 | -7.65959 | 35144 ft | 482 kts | 100° |
| 2026-04-25 23:33 | 42.59549 | -7.57074 | 35140 ft | 481 kts | 100° |
| 2026-04-25 23:33 | 42.58252 | -7.48212 | 35138 ft | 480 kts | 100° |
| 2026-04-25 23:34 | 42.56950 | -7.39358 | 35149 ft | 481 kts | 100° |
| 2026-04-25 23:34 | 42.55633 | -7.30462 | 35152 ft | 479 kts | 100° |
| 2026-04-25 23:35 | 42.54325 | -7.21669 | 35163 ft | 478 kts | 100° |
| 2026-04-25 23:35 | 42.53007 | -7.12864 | 35184 ft | 480 kts | 100° |
| 2026-04-25 23:36 | 42.51676 | -7.04013 | 35200 ft | 479 kts | 100° |
| 2026-04-25 23:36 | 42.50344 | -6.95214 | 35208 ft | 478 kts | 100° |
| 2026-04-25 23:37 | 42.49008 | -6.86428 | 35192 ft | 477 kts | 99° |
| 2026-04-25 23:37 | 42.47671 | -6.77691 | 35176 ft | 477 kts | 99° |
| 2026-04-25 23:38 | 42.46321 | -6.68908 | 35173 ft | 476 kts | 99° |
| 2026-04-25 23:38 | 42.44971 | -6.60176 | 35178 ft | 475 kts | 99° |
| 2026-04-25 23:39 | 42.43620 | -6.51484 | 35186 ft | 476 kts | 99° |
| 2026-04-25 23:39 | 42.42249 | -6.42713 | 35191 ft | 475 kts | 99° |
| 2026-04-25 23:40 | 42.40879 | -6.33992 | 35195 ft | 475 kts | 100° |
| 2026-04-25 23:40 | 42.39505 | -6.25289 | 35192 ft | 474 kts | 100° |
| 2026-04-25 23:41 | 42.38127 | -6.16607 | 35191 ft | 474 kts | 99° |
| 2026-04-25 23:41 | 42.36747 | -6.07958 | 35183 ft | 472 kts | 99° |
| 2026-04-25 23:42 | 42.35363 | -5.99332 | 35186 ft | 472 kts | 99° |
| 2026-04-25 23:42 | 42.33971 | -5.90694 | 35181 ft | 472 kts | 99° |
| 2026-04-25 23:43 | 42.32569 | -5.82038 | 35182 ft | 472 kts | 99° |
| 2026-04-25 23:43 | 42.31161 | -5.73395 | 35191 ft | 471 kts | 99° |
| 2026-04-25 23:44 | 42.29749 | -5.64764 | 35187 ft | 471 kts | 99° |
| 2026-04-25 23:44 | 42.28319 | -5.56072 | 35189 ft | 472 kts | 100° |
| 2026-04-25 23:45 | 42.26897 | -5.47469 | 35186 ft | 471 kts | 100° |
| 2026-04-25 23:45 | 42.25466 | -5.38856 | 35183 ft | 471 kts | 100° |
| 2026-04-25 23:46 | 42.24034 | -5.30280 | 35184 ft | 472 kts | 101° |
| 2026-04-25 23:46 | 42.22586 | -5.21653 | 35181 ft | 471 kts | 101° |
| 2026-04-25 23:47 | 42.21140 | -5.13074 | 35175 ft | 470 kts | 101° |
| 2026-04-25 23:47 | 42.19682 | -5.04468 | 35177 ft | 471 kts | 101° |
| 2026-04-25 23:48 | 42.18224 | -4.95905 | 35177 ft | 472 kts | 101° |
| 2026-04-25 23:48 | 42.16754 | -4.87309 | 35174 ft | 471 kts | 101° |
| 2026-04-25 23:49 | 42.15285 | -4.78763 | 35176 ft | 473 kts | 101° |
| 2026-04-25 23:49 | 42.13788 | -4.70091 | 35171 ft | 476 kts | 101° |
| 2026-04-25 23:50 | 42.12290 | -4.61463 | 35181 ft | 478 kts | 101° |
| 2026-04-25 23:50 | 42.10770 | -4.52746 | 35174 ft | 479 kts | 101° |
| 2026-04-25 23:51 | 42.09233 | -4.43971 | 35171 ft | 483 kts | 102° |
| 2026-04-25 23:51 | 42.07689 | -4.35206 | 35171 ft | 480 kts | 101° |
| 2026-04-25 23:52 | 42.06148 | -4.26495 | 35171 ft | 485 kts | 103° |
| 2026-04-25 23:52 | 42.04574 | -4.17638 | 35165 ft | 484 kts | 103° |
| 2026-04-25 23:53 | 42.03000 | -4.08830 | 35170 ft | 484 kts | 103° |
| 2026-04-25 23:53 | 42.01419 | -4.00018 | 35165 ft | 486 kts | 104° |
| 2026-04-25 23:54 | 41.99833 | -3.91225 | 35170 ft | 487 kts | 104° |
| 2026-04-25 23:54 | 41.98235 | -3.82402 | 35184 ft | 487 kts | 103° |
| 2026-04-25 23:55 | 41.96638 | -3.73633 | 35182 ft | 484 kts | 103° |
| 2026-04-25 23:55 | 41.95026 | -3.64818 | 35182 ft | 486 kts | 103° |
| 2026-04-25 23:56 | 41.93417 | -3.56064 | 35185 ft | 485 kts | 103° |
| 2026-04-25 23:56 | 41.91792 | -3.47260 | 35193 ft | 486 kts | 103° |
| 2026-04-25 23:57 | 41.90165 | -3.38488 | 35188 ft | 486 kts | 103° |
| 2026-04-25 23:57 | 41.88521 | -3.29666 | 35192 ft | 488 kts | 104° |
| 2026-04-25 23:58 | 41.86882 | -3.20910 | 35186 ft | 485 kts | 104° |
| 2026-04-25 23:58 | 41.85227 | -3.12108 | 35194 ft | 487 kts | 104° |
| 2026-04-25 23:59 | 41.83562 | -3.03295 | 35206 ft | 488 kts | 104° |
| 2026-04-25 23:59 | 41.81902 | -2.94550 | 35209 ft | 489 kts | 103° |
| 2026-04-26 00:00 | 41.80221 | -2.85730 | 35207 ft | 486 kts | 104° |
| 2026-04-26 00:00 | 41.78558 | -2.77045 | 35207 ft | 487 kts | 103° |
| 2026-04-26 00:01 | 41.76875 | -2.68298 | 35202 ft | 485 kts | 104° |
| 2026-04-26 00:01 | 41.75190 | -2.59572 | 35197 ft | 484 kts | 104° |
| 2026-04-26 00:02 | 41.73501 | -2.50869 | 35191 ft | 484 kts | 104° |
| 2026-04-26 00:02 | 41.71817 | -2.42230 | 35193 ft | 482 kts | 104° |
| 2026-04-26 00:03 | 41.70120 | -2.33562 | 35191 ft | 481 kts | 105° |
| 2026-04-26 00:03 | 41.68427 | -2.24952 | 35198 ft | 483 kts | 105° |
| 2026-04-26 00:04 | 41.66712 | -2.16264 | 35204 ft | 481 kts | 105° |
| 2026-04-26 00:04 | 41.65016 | -2.07712 | 35207 ft | 480 kts | 105° |
| 2026-04-26 00:05 | 41.63306 | -1.99131 | 35206 ft | 480 kts | 105° |
| 2026-04-26 00:05 | 41.61585 | -1.90523 | 35199 ft | 478 kts | 105° |
| 2026-04-26 00:06 | 41.59871 | -1.81992 | 35191 ft | 480 kts | 105° |
| 2026-04-26 00:06 | 41.58137 | -1.73398 | 35182 ft | 478 kts | 104° |
| 2026-04-26 00:07 | 41.56413 | -1.64885 | 35170 ft | 477 kts | 104° |
| 2026-04-26 00:07 | 41.54679 | -1.56360 | 35167 ft | 478 kts | 104° |
| 2026-04-26 00:08 | 41.52937 | -1.47833 | 35158 ft | 478 kts | 104° |
| 2026-04-26 00:08 | 41.51185 | -1.39294 | 35152 ft | 477 kts | 104° |
| 2026-04-26 00:09 | 41.49435 | -1.30799 | 35148 ft | 475 kts | 105° |
| 2026-04-26 00:09 | 41.47684 | -1.22332 | 35145 ft | 473 kts | 105° |
| 2026-04-26 00:10 | 41.45937 | -1.13919 | 35146 ft | 475 kts | 105° |
| 2026-04-26 00:10 | 41.44164 | -1.05413 | 35148 ft | 475 kts | 105° |
| 2026-04-26 00:11 | 41.42397 | -0.96973 | 35146 ft | 474 kts | 105° |
| 2026-04-26 00:11 | 41.40634 | -0.88583 | 35146 ft | 474 kts | 105° |
| 2026-04-26 00:12 | 41.38848 | -0.80123 | 35148 ft | 473 kts | 105° |
| 2026-04-26 00:12 | 41.37062 | -0.71694 | 35140 ft | 474 kts | 105° |
| 2026-04-26 00:13 | 41.35272 | -0.63279 | 35136 ft | 474 kts | 105° |
| 2026-04-26 00:13 | 41.33475 | -0.54863 | 35131 ft | 473 kts | 105° |
| 2026-04-26 00:14 | 41.31679 | -0.46488 | 35125 ft | 474 kts | 105° |
| 2026-04-26 00:14 | 41.29869 | -0.38079 | 35123 ft | 474 kts | 105° |
| 2026-04-26 00:15 | 41.28055 | -0.29686 | 35122 ft | 473 kts | 105° |
| 2026-04-26 00:15 | 41.26234 | -0.21295 | 35113 ft | 473 kts | 105° |
| 2026-04-26 00:16 | 41.24402 | -0.12882 | 35112 ft | 473 kts | 105° |
| 2026-04-26 00:16 | 41.22576 | -0.04532 | 35110 ft | 472 kts | 105° |
| 2026-04-26 00:17 | 41.20737 | 0.03846 | 35107 ft | 472 kts | 105° |
| 2026-04-26 00:17 | 41.18899 | 0.12190 | 35105 ft | 473 kts | 106° |
| 2026-04-26 00:18 | 41.17056 | 0.20524 | 35106 ft | 473 kts | 105° |
| 2026-04-26 00:18 | 41.15208 | 0.28843 | 35106 ft | 473 kts | 105° |
| 2026-04-26 00:19 | 41.13346 | 0.37197 | 35102 ft | 472 kts | 105° |
| 2026-04-26 00:19 | 41.11479 | 0.45541 | 35098 ft | 471 kts | 105° |
| 2026-04-26 00:20 | 41.09613 | 0.53849 | 35099 ft | 471 kts | 105° |
| 2026-04-26 00:20 | 41.07749 | 0.62122 | 35105 ft | 472 kts | 106° |
| 2026-04-26 00:21 | 41.05867 | 0.70436 | 35106 ft | 471 kts | 106° |
| 2026-04-26 00:21 | 41.03979 | 0.78748 | 35111 ft | 471 kts | 106° |
| 2026-04-26 00:22 | 41.02099 | 0.86998 | 35104 ft | 472 kts | 106° |
| 2026-04-26 00:22 | 41.00203 | 0.95284 | 35097 ft | 472 kts | 106° |
| 2026-04-26 00:23 | 40.98297 | 1.03584 | 35094 ft | 471 kts | 106° |
| 2026-04-26 00:23 | 40.96400 | 1.11814 | 35098 ft | 469 kts | 106° |
| 2026-04-26 00:24 | 40.94485 | 1.20088 | 35099 ft | 471 kts | 106° |
| 2026-04-26 00:24 | 40.92572 | 1.28327 | 35103 ft | 471 kts | 106° |
| 2026-04-26 00:25 | 40.90654 | 1.36557 | 35099 ft | 471 kts | 106° |
| 2026-04-26 00:25 | 40.88725 | 1.44809 | 35102 ft | 471 kts | 106° |
| 2026-04-26 00:26 | 40.86795 | 1.53029 | 35099 ft | 470 kts | 106° |
| 2026-04-26 00:26 | 40.84855 | 1.61264 | 35101 ft | 471 kts | 106° |
| 2026-04-26 00:27 | 40.82923 | 1.69435 | 35108 ft | 469 kts | 107° |
| 2026-04-26 00:27 | 40.80986 | 1.77600 | 35108 ft | 469 kts | 107° |
| 2026-04-26 00:28 | 40.79025 | 1.85834 | 35107 ft | 469 kts | 106° |
| 2026-04-26 00:28 | 40.77081 | 1.93967 | 35077 ft | 469 kts | 107° |
| 2026-04-26 00:29 | 40.75111 | 2.02184 | 35107 ft | 468 kts | 107° |
| 2026-04-26 00:29 | 40.73159 | 2.10295 | 35100 ft | 468 kts | 107° |
| 2026-04-26 00:30 | 40.71187 | 2.18458 | 35099 ft | 468 kts | 107° |
| 2026-04-26 00:30 | 40.69215 | 2.26595 | 35097 ft | 468 kts | 107° |
| 2026-04-26 00:31 | 40.67229 | 2.34763 | 35107 ft | 468 kts | 107° |
| 2026-04-26 00:31 | 40.65240 | 2.42914 | 35166 ft | 468 kts | 107° |
| 2026-04-26 00:32 | 40.63250 | 2.51036 | 35108 ft | 469 kts | 107° |
| 2026-04-26 00:32 | 40.60246 | 2.63252 | 35108 ft | 468 kts | 107° |
| 2026-04-26 00:33 | 40.58246 | 2.71350 | 35108 ft | 468 kts | 107° |
| 2026-04-26 00:33 | 40.56242 | 2.79436 | 35104 ft | 467 kts | 107° |
| 2026-04-26 00:34 | 40.54219 | 2.87569 | 35104 ft | 468 kts | 107° |
| 2026-04-26 00:34 | 40.52205 | 2.95637 | 35111 ft | 468 kts | 107° |
| 2026-04-26 00:35 | 40.50164 | 3.03791 | 35110 ft | 469 kts | 107° |
| 2026-04-26 00:35 | 40.48130 | 3.11882 | 35109 ft | 469 kts | 107° |
| 2026-04-26 00:36 | 40.46083 | 3.20003 | 35107 ft | 469 kts | 107° |
| 2026-04-26 00:36 | 40.44024 | 3.28142 | 35110 ft | 469 kts | 107° |
| 2026-04-26 00:37 | 40.41969 | 3.36238 | 35107 ft | 469 kts | 107° |
| 2026-04-26 00:37 | 40.39910 | 3.44321 | 35110 ft | 470 kts | 107° |
| 2026-04-26 00:38 | 40.37837 | 3.52438 | 35110 ft | 470 kts | 107° |
| 2026-04-26 00:38 | 40.35766 | 3.60513 | 35109 ft | 470 kts | 107° |
| 2026-04-26 00:39 | 40.33676 | 3.68636 | 35110 ft | 470 kts | 108° |
| 2026-04-26 00:39 | 40.31588 | 3.76728 | 35109 ft | 470 kts | 108° |
| 2026-04-26 00:40 | 40.29489 | 3.84833 | 35111 ft | 470 kts | 108° |
| 2026-04-26 00:40 | 40.27394 | 3.92900 | 35111 ft | 470 kts | 108° |
| 2026-04-26 00:41 | 40.25288 | 4.00979 | 35111 ft | 471 kts | 108° |
| 2026-04-26 00:41 | 40.23169 | 4.09082 | 35109 ft | 472 kts | 108° |
| 2026-04-26 00:42 | 40.21043 | 4.17184 | 35106 ft | 473 kts | 108° |
| 2026-04-26 00:42 | 40.18908 | 4.25291 | 35109 ft | 473 kts | 108° |
| 2026-04-26 00:43 | 40.16778 | 4.33359 | 35109 ft | 472 kts | 108° |
| 2026-04-26 00:43 | 40.14644 | 4.41410 | 35112 ft | 472 kts | 108° |
| 2026-04-26 00:44 | 40.12496 | 4.49491 | 35110 ft | 472 kts | 108° |
| 2026-04-26 00:44 | 40.10342 | 4.57567 | 35112 ft | 472 kts | 108° |
| 2026-04-26 00:45 | 40.08543 | 4.64292 | 35106 ft | 473 kts | 108° |
| 2026-04-26 00:45 | 40.06016 | 4.73709 | 35108 ft | 473 kts | 108° |
| 2026-04-26 00:46 | 40.03846 | 4.81766 | 35108 ft | 474 kts | 108° |
| 2026-04-26 00:46 | 40.01652 | 4.89889 | 35106 ft | 473 kts | 108° |
| 2026-04-26 00:47 | 39.99480 | 4.97904 | 35113 ft | 473 kts | 108° |
| 2026-04-26 00:47 | 39.97287 | 5.05968 | 35103 ft | 473 kts | 108° |
| 2026-04-26 00:48 | 39.95090 | 5.14023 | 35108 ft | 473 kts | 108° |
| 2026-04-26 00:48 | 39.92891 | 5.22062 | 35109 ft | 473 kts | 108° |
| 2026-04-26 00:49 | 39.90678 | 5.30125 | 35112 ft | 474 kts | 108° |
| 2026-04-26 00:49 | 39.88462 | 5.38172 | 35104 ft | 476 kts | 108° |
| 2026-04-26 00:50 | 39.86244 | 5.46200 | 35101 ft | 474 kts | 108° |
| 2026-04-26 00:50 | 39.84007 | 5.54276 | 35103 ft | 473 kts | 108° |
| 2026-04-26 00:51 | 39.81785 | 5.62268 | 35102 ft | 474 kts | 108° |
| 2026-04-26 00:51 | 39.79544 | 5.70304 | 35104 ft | 474 kts | 109° |
| 2026-04-26 00:52 | 39.77294 | 5.78349 | 35106 ft | 475 kts | 109° |
| 2026-04-26 00:52 | 39.75043 | 5.86372 | 35101 ft | 475 kts | 109° |
| 2026-04-26 00:53 | 39.72791 | 5.94372 | 35097 ft | 474 kts | 109° |
| 2026-04-26 00:53 | 39.70524 | 6.02403 | 35098 ft | 474 kts | 109° |
| 2026-04-26 00:54 | 39.68257 | 6.10408 | 35109 ft | 473 kts | 109° |
| 2026-04-26 00:54 | 39.65985 | 6.18406 | 35104 ft | 474 kts | 109° |
| 2026-04-26 00:55 | 39.63699 | 6.26429 | 35103 ft | 474 kts | 109° |
| 2026-04-26 00:55 | 39.61425 | 6.34386 | 35108 ft | 474 kts | 109° |
| 2026-04-26 00:56 | 39.59129 | 6.42394 | 35110 ft | 475 kts | 109° |
| 2026-04-26 00:56 | 39.56824 | 6.50409 | 35105 ft | 475 kts | 109° |
| 2026-04-26 00:57 | 39.54519 | 6.58399 | 35104 ft | 474 kts | 109° |
| 2026-04-26 00:57 | 39.52216 | 6.66362 | 35105 ft | 474 kts | 110° |
| 2026-04-26 00:58 | 39.49900 | 6.74340 | 35107 ft | 474 kts | 110° |
| 2026-04-26 00:58 | 39.47576 | 6.82326 | 35107 ft | 474 kts | 110° |
| 2026-04-26 00:59 | 39.45266 | 6.90240 | 35107 ft | 474 kts | 110° |
| 2026-04-26 00:59 | 39.42928 | 6.98224 | 35110 ft | 474 kts | 110° |
| 2026-04-26 01:00 | 39.40591 | 7.06179 | 35111 ft | 475 kts | 110° |
| 2026-04-26 01:00 | 39.38258 | 7.14098 | 35110 ft | 475 kts | 110° |
| 2026-04-26 01:01 | 39.35898 | 7.22088 | 35110 ft | 475 kts | 110° |
| 2026-04-26 01:01 | 39.33553 | 7.29999 | 35105 ft | 475 kts | 110° |
| 2026-04-26 01:02 | 39.31194 | 7.37937 | 35113 ft | 475 kts | 110° |
| 2026-04-26 01:02 | 39.28817 | 7.45911 | 35111 ft | 476 kts | 110° |
| 2026-04-26 01:03 | 39.26447 | 7.53840 | 35114 ft | 477 kts | 110° |
| 2026-04-26 01:03 | 39.24053 | 7.61821 | 35107 ft | 477 kts | 109° |
| 2026-04-26 01:04 | 39.21658 | 7.69787 | 35108 ft | 477 kts | 110° |
| 2026-04-26 01:04 | 39.19268 | 7.77708 | 35108 ft | 477 kts | 110° |
| 2026-04-26 01:05 | 39.16868 | 7.85642 | 35108 ft | 478 kts | 110° |
| 2026-04-26 01:05 | 39.14440 | 7.93646 | 35110 ft | 479 kts | 110° |
| 2026-04-26 01:06 | 39.12029 | 8.01571 | 35109 ft | 480 kts | 110° |
| 2026-04-26 01:06 | 39.09589 | 8.09564 | 35112 ft | 481 kts | 110° |
| 2026-04-26 01:07 | 39.07159 | 8.17503 | 35105 ft | 479 kts | 110° |
| 2026-04-26 01:07 | 39.04704 | 8.25500 | 35108 ft | 479 kts | 110° |
| 2026-04-26 01:08 | 39.02255 | 8.33455 | 35109 ft | 480 kts | 110° |
| 2026-04-26 01:08 | 38.99795 | 8.41423 | 35115 ft | 481 kts | 110° |
| 2026-04-26 01:09 | 38.97339 | 8.49354 | 35111 ft | 481 kts | 110° |
| 2026-04-26 01:09 | 38.94861 | 8.57336 | 35115 ft | 482 kts | 110° |
| 2026-04-26 01:10 | 38.92384 | 8.65290 | 35108 ft | 481 kts | 111° |
| 2026-04-26 01:10 | 38.89899 | 8.73244 | 35112 ft | 481 kts | 111° |
| 2026-04-26 01:11 | 38.87415 | 8.81176 | 35106 ft | 482 kts | 111° |
| 2026-04-26 01:11 | 38.84911 | 8.89146 | 35104 ft | 483 kts | 111° |
| 2026-04-26 01:12 | 38.82405 | 8.97101 | 35107 ft | 482 kts | 111° |
| 2026-04-26 01:12 | 38.79897 | 9.05039 | 35106 ft | 483 kts | 111° |
| 2026-04-26 01:13 | 38.77383 | 9.12975 | 35103 ft | 483 kts | 111° |
| 2026-04-26 01:13 | 38.74852 | 9.20942 | 35103 ft | 482 kts | 111° |
| 2026-04-26 01:14 | 38.72330 | 9.28857 | 35100 ft | 482 kts | 111° |
| 2026-04-26 01:14 | 38.69803 | 9.36764 | 35099 ft | 482 kts | 111° |
| 2026-04-26 01:15 | 38.67256 | 9.44711 | 35095 ft | 483 kts | 111° |
| 2026-04-26 01:15 | 38.64717 | 9.52614 | 35098 ft | 483 kts | 111° |
| 2026-04-26 01:16 | 38.62162 | 9.60543 | 35095 ft | 483 kts | 111° |
| 2026-04-26 01:16 | 38.59617 | 9.68419 | 35093 ft | 483 kts | 112° |
| 2026-04-26 01:17 | 38.57040 | 9.76374 | 35090 ft | 483 kts | 112° |
| 2026-04-26 01:17 | 38.54485 | 9.84236 | 35090 ft | 483 kts | 112° |
| 2026-04-26 01:18 | 38.51910 | 9.92136 | 35088 ft | 483 kts | 112° |
| 2026-04-26 01:18 | 38.49319 | 10.00066 | 35089 ft | 483 kts | 112° |
| 2026-04-26 01:19 | 38.46734 | 10.07956 | 35091 ft | 483 kts | 112° |
| 2026-04-26 01:19 | 38.44144 | 10.15839 | 35097 ft | 484 kts | 112° |
| 2026-04-26 01:20 | 38.41553 | 10.23702 | 35096 ft | 483 kts | 112° |
| 2026-04-26 01:20 | 38.38939 | 10.31615 | 35098 ft | 483 kts | 112° |
| 2026-04-26 01:21 | 38.36322 | 10.39515 | 35102 ft | 484 kts | 112° |
| 2026-04-26 01:21 | 38.33711 | 10.47376 | 35100 ft | 483 kts | 112° |
| 2026-04-26 01:22 | 38.31088 | 10.55249 | 35104 ft | 484 kts | 112° |
| 2026-04-26 01:22 | 38.28473 | 10.63078 | 35105 ft | 484 kts | 112° |
| 2026-04-26 01:23 | 38.25836 | 10.70949 | 35107 ft | 486 kts | 113° |
| 2026-04-26 01:23 | 38.23190 | 10.78828 | 35109 ft | 485 kts | 113° |
| 2026-04-26 01:24 | 38.20551 | 10.86667 | 35109 ft | 484 kts | 113° |
| 2026-04-26 01:24 | 38.17890 | 10.94546 | 35112 ft | 485 kts | 113° |
| 2026-04-26 01:25 | 38.15240 | 11.02373 | 35110 ft | 485 kts | 113° |
| 2026-04-26 01:25 | 38.12573 | 11.10229 | 35116 ft | 486 kts | 113° |
| 2026-04-26 01:26 | 38.09907 | 11.18062 | 35112 ft | 485 kts | 113° |
| 2026-04-26 01:26 | 38.07221 | 11.25931 | 35113 ft | 487 kts | 113° |
| 2026-04-26 01:27 | 38.04534 | 11.33781 | 35113 ft | 486 kts | 113° |
| 2026-04-26 01:27 | 38.01854 | 11.41593 | 35113 ft | 487 kts | 113° |
| 2026-04-26 01:28 | 37.99157 | 11.49431 | 35114 ft | 486 kts | 113° |
| 2026-04-26 01:28 | 37.96447 | 11.57288 | 35114 ft | 487 kts | 113° |
| 2026-04-26 01:29 | 37.93732 | 11.65136 | 35115 ft | 486 kts | 114° |
| 2026-04-26 01:29 | 37.91024 | 11.72945 | 35112 ft | 486 kts | 114° |
| 2026-04-26 01:30 | 37.88318 | 11.80725 | 35110 ft | 485 kts | 114° |
| 2026-04-26 01:30 | 37.85597 | 11.88529 | 35110 ft | 486 kts | 114° |
| 2026-04-26 01:31 | 37.82873 | 11.96323 | 35110 ft | 486 kts | 114° |
| 2026-04-26 01:31 | 37.80147 | 12.04100 | 35115 ft | 486 kts | 114° |
| 2026-04-26 01:32 | 37.77421 | 12.11858 | 35111 ft | 486 kts | 114° |
| 2026-04-26 01:32 | 37.74674 | 12.19656 | 35115 ft | 485 kts | 114° |
| 2026-04-26 01:33 | 37.71940 | 12.27394 | 35119 ft | 484 kts | 114° |
| 2026-04-26 01:33 | 37.69201 | 12.35131 | 35121 ft | 484 kts | 114° |
| 2026-04-26 01:34 | 37.66463 | 12.42841 | 35119 ft | 483 kts | 114° |
| 2026-04-26 01:34 | 37.63708 | 12.50580 | 35119 ft | 483 kts | 114° |
| 2026-04-26 01:35 | 37.60956 | 12.58292 | 35122 ft | 483 kts | 114° |
| 2026-04-26 01:35 | 37.58211 | 12.65964 | 35121 ft | 483 kts | 114° |
| 2026-04-26 01:36 | 37.55457 | 12.73640 | 35120 ft | 482 kts | 114° |
| 2026-04-26 01:37 | 37.51311 | 12.85161 | 35121 ft | 483 kts | 114° |
| 2026-04-26 01:37 | 37.48528 | 12.92871 | 35117 ft | 484 kts | 114° |
| 2026-04-26 01:38 | 37.45750 | 13.00549 | 35118 ft | 483 kts | 114° |
| 2026-04-26 01:38 | 37.42968 | 13.08216 | 35121 ft | 483 kts | 114° |
| 2026-04-26 01:39 | 37.40178 | 13.15884 | 35119 ft | 482 kts | 114° |
| 2026-04-26 01:39 | 37.37395 | 13.23517 | 35115 ft | 483 kts | 114° |
| 2026-04-26 01:40 | 37.34588 | 13.31194 | 35114 ft | 483 kts | 114° |
| 2026-04-26 01:40 | 37.31789 | 13.38832 | 35117 ft | 483 kts | 114° |
| 2026-04-26 01:41 | 37.28997 | 13.46432 | 35114 ft | 483 kts | 114° |
| 2026-04-26 01:41 | 37.26188 | 13.54058 | 35111 ft | 482 kts | 114° |
| 2026-04-26 01:42 | 37.23366 | 13.61701 | 35111 ft | 482 kts | 114° |
| 2026-04-26 01:42 | 37.20559 | 13.69284 | 35103 ft | 482 kts | 115° |
| 2026-04-26 01:43 | 37.17742 | 13.76876 | 35106 ft | 481 kts | 115° |
| 2026-04-26 01:43 | 37.14930 | 13.84434 | 35103 ft | 482 kts | 115° |
| 2026-04-26 01:44 | 37.12096 | 13.92034 | 35103 ft | 481 kts | 115° |
| 2026-04-26 01:44 | 37.09257 | 13.99629 | 35095 ft | 481 kts | 115° |
| 2026-04-26 01:45 | 37.06436 | 14.07156 | 35094 ft | 480 kts | 115° |
| 2026-04-26 01:45 | 37.03602 | 14.14700 | 35099 ft | 479 kts | 115° |
| 2026-04-26 01:46 | 37.00773 | 14.22213 | 35095 ft | 480 kts | 115° |
| 2026-04-26 01:46 | 36.97916 | 14.29782 | 34973 ft | 481 kts | 115° |
| 2026-04-26 01:46 | 36.96493 | 14.33545 | 35080 ft | 480 kts | 115° |
| 2026-04-26 01:47 | 36.95068 | 14.37310 | 35095 ft | 482 kts | 115° |
| 2026-04-26 01:47 | 36.92220 | 14.44818 | 35100 ft | 482 kts | 115° |
| 2026-04-26 01:48 | 36.89334 | 14.52408 | 35096 ft | 481 kts | 114° |
| 2026-04-26 01:48 | 36.86474 | 14.59914 | 35092 ft | 480 kts | 114° |
| 2026-04-26 01:49 | 36.83607 | 14.67417 | 35091 ft | 479 kts | 115° |
| 2026-04-26 01:49 | 36.80746 | 14.74888 | 35096 ft | 480 kts | 115° |
| 2026-04-26 01:50 | 36.77879 | 14.82355 | 35096 ft | 480 kts | 115° |
| 2026-04-26 01:50 | 36.74993 | 14.89856 | 35093 ft | 479 kts | 115° |
| 2026-04-26 01:51 | 36.72126 | 14.97289 | 35093 ft | 480 kts | 115° |
| 2026-04-26 01:51 | 36.69213 | 15.04824 | 35087 ft | 481 kts | 115° |
| 2026-04-26 01:52 | 36.66331 | 15.12259 | 35096 ft | 480 kts | 115° |
| 2026-04-26 01:52 | 36.63426 | 15.19738 | 35092 ft | 479 kts | 115° |
| 2026-04-26 01:53 | 36.60536 | 15.27161 | 35092 ft | 479 kts | 115° |
| 2026-04-26 01:53 | 36.57625 | 15.34621 | 35089 ft | 481 kts | 115° |
| 2026-04-26 01:54 | 36.54706 | 15.42081 | 35095 ft | 480 kts | 115° |
| 2026-04-26 01:54 | 36.51783 | 15.49536 | 35091 ft | 482 kts | 115° |
| 2026-04-26 01:55 | 36.48851 | 15.56997 | 35095 ft | 480 kts | 115° |
| 2026-04-26 01:55 | 36.45924 | 15.64426 | 35090 ft | 480 kts | 115° |
| 2026-04-26 01:56 | 36.42984 | 15.71871 | 35093 ft | 481 kts | 115° |
| 2026-04-26 01:56 | 36.40043 | 15.79301 | 35091 ft | 480 kts | 115° |
| 2026-04-26 01:57 | 36.37104 | 15.86710 | 35086 ft | 479 kts | 115° |
| 2026-04-26 01:57 | 36.34169 | 15.94090 | 35091 ft | 481 kts | 115° |
| 2026-04-26 01:58 | 36.31219 | 16.01494 | 35093 ft | 480 kts | 115° |
| 2026-04-26 01:58 | 36.28256 | 16.08910 | 35087 ft | 480 kts | 115° |
| 2026-04-26 01:59 | 36.25301 | 16.16292 | 35089 ft | 481 kts | 115° |
| 2026-04-26 01:59 | 36.22324 | 16.23710 | 35088 ft | 481 kts | 115° |
| 2026-04-26 02:00 | 36.19359 | 16.31081 | 35095 ft | 480 kts | 115° |
| 2026-04-26 02:00 | 36.16393 | 16.38437 | 35089 ft | 482 kts | 115° |
| 2026-04-26 02:01 | 36.13414 | 16.45810 | 35088 ft | 480 kts | 115° |
| 2026-04-26 02:01 | 36.10412 | 16.53224 | 35093 ft | 482 kts | 115° |
| 2026-04-26 02:02 | 36.07407 | 16.60626 | 35097 ft | 481 kts | 115° |
| 2026-04-26 02:02 | 36.04416 | 16.67979 | 35090 ft | 482 kts | 115° |
| 2026-04-26 02:03 | 36.01407 | 16.75358 | 35087 ft | 482 kts | 115° |
| 2026-04-26 02:03 | 35.98395 | 16.82729 | 35073 ft | 481 kts | 115° |
| 2026-04-26 02:04 | 35.95364 | 16.90129 | 35076 ft | 483 kts | 115° |
| 2026-04-26 02:04 | 35.92340 | 16.97495 | 35077 ft | 483 kts | 115° |
| 2026-04-26 02:05 | 35.89315 | 17.04847 | 35067 ft | 482 kts | 115° |
| 2026-04-26 02:05 | 35.86289 | 17.12185 | 35069 ft | 483 kts | 115° |
| 2026-04-26 02:06 | 35.83237 | 17.19570 | 35071 ft | 483 kts | 115° |
| 2026-04-26 02:06 | 35.80199 | 17.26903 | 35071 ft | 484 kts | 115° |
| 2026-04-26 02:07 | 35.77145 | 17.34260 | 35076 ft | 484 kts | 115° |
| 2026-04-26 02:07 | 35.74080 | 17.41627 | 35073 ft | 484 kts | 115° |
| 2026-04-26 02:08 | 35.71011 | 17.48986 | 35077 ft | 485 kts | 115° |
| 2026-04-26 02:08 | 35.67934 | 17.56349 | 35079 ft | 484 kts | 115° |
| 2026-04-26 02:09 | 35.64883 | 17.63633 | 35074 ft | 484 kts | 115° |
| 2026-04-26 02:09 | 35.61795 | 17.70988 | 35075 ft | 485 kts | 115° |
| 2026-04-26 02:10 | 35.58701 | 17.78344 | 35077 ft | 484 kts | 115° |
| 2026-04-26 02:10 | 35.55609 | 17.85676 | 35079 ft | 485 kts | 115° |
| 2026-04-26 02:11 | 35.52512 | 17.93005 | 35080 ft | 485 kts | 115° |
| 2026-04-26 02:11 | 35.49426 | 18.00293 | 35079 ft | 485 kts | 115° |
| 2026-04-26 02:12 | 35.46299 | 18.07658 | 35078 ft | 485 kts | 115° |
| 2026-04-26 02:12 | 35.43195 | 18.14957 | 35078 ft | 486 kts | 115° |
| 2026-04-26 02:13 | 35.40069 | 18.22289 | 35078 ft | 486 kts | 115° |
| 2026-04-26 02:13 | 35.36946 | 18.29598 | 35081 ft | 487 kts | 115° |
| 2026-04-26 02:14 | 35.33793 | 18.36961 | 35078 ft | 485 kts | 115° |
| 2026-04-26 02:14 | 35.30778 | 18.43989 | 35078 ft | 487 kts | 115° |
| 2026-04-26 02:15 | 35.27628 | 18.51313 | 35078 ft | 487 kts | 115° |
| 2026-04-26 02:15 | 35.24480 | 18.58618 | 35077 ft | 486 kts | 115° |
| 2026-04-26 02:16 | 35.21336 | 18.65899 | 35078 ft | 487 kts | 115° |
| 2026-04-26 02:16 | 35.18167 | 18.73220 | 35074 ft | 487 kts | 115° |
| 2026-04-26 02:17 | 35.14986 | 18.80553 | 35076 ft | 489 kts | 115° |
| 2026-04-26 02:17 | 35.11808 | 18.87863 | 35075 ft | 488 kts | 115° |
| 2026-04-26 02:18 | 35.08625 | 18.95171 | 35074 ft | 489 kts | 115° |
| 2026-04-26 02:18 | 35.05462 | 19.02415 | 35072 ft | 487 kts | 115° |
| 2026-04-26 02:19 | 35.02273 | 19.09703 | 35068 ft | 488 kts | 115° |
| 2026-04-26 02:19 | 34.99080 | 19.16987 | 35064 ft | 489 kts | 115° |
| 2026-04-26 02:20 | 34.95859 | 19.24317 | 35057 ft | 491 kts | 115° |
| 2026-04-26 02:20 | 34.92646 | 19.31613 | 35059 ft | 491 kts | 115° |
| 2026-04-26 02:21 | 34.89420 | 19.38926 | 35058 ft | 492 kts | 115° |
| 2026-04-26 02:21 | 34.86196 | 19.46214 | 35052 ft | 490 kts | 115° |
| 2026-04-26 02:22 | 34.82950 | 19.53540 | 35055 ft | 490 kts | 115° |
| 2026-04-26 02:22 | 34.79734 | 19.60780 | 35049 ft | 490 kts | 115° |
| 2026-04-26 02:23 | 34.76473 | 19.68109 | 35056 ft | 493 kts | 116° |
| 2026-04-26 02:23 | 34.73216 | 19.75410 | 35051 ft | 492 kts | 116° |
| 2026-04-26 02:24 | 34.69954 | 19.82709 | 35049 ft | 494 kts | 116° |
| 2026-04-26 02:24 | 34.66684 | 19.90010 | 35051 ft | 494 kts | 116° |
| 2026-04-26 02:25 | 34.63417 | 19.97290 | 35060 ft | 493 kts | 116° |
| 2026-04-26 02:25 | 34.60148 | 20.04556 | 35048 ft | 493 kts | 116° |
| 2026-04-26 02:26 | 34.56851 | 20.11870 | 35051 ft | 495 kts | 116° |
| 2026-04-26 02:26 | 34.53534 | 20.19215 | 35050 ft | 496 kts | 116° |
| 2026-04-26 02:27 | 34.50221 | 20.26533 | 35042 ft | 494 kts | 116° |
| 2026-04-26 02:27 | 34.46929 | 20.33790 | 35038 ft | 495 kts | 116° |
| 2026-04-26 02:28 | 34.43603 | 20.41107 | 35038 ft | 494 kts | 116° |
| 2026-04-26 02:28 | 34.40292 | 20.48375 | 35034 ft | 496 kts | 116° |
| 2026-04-26 02:29 | 34.36960 | 20.55675 | 35030 ft | 496 kts | 116° |
| 2026-04-26 02:29 | 34.33625 | 20.62965 | 35035 ft | 496 kts | 116° |
| 2026-04-26 02:30 | 34.30273 | 20.70279 | 35031 ft | 498 kts | 117° |
| 2026-04-26 02:30 | 34.26918 | 20.77583 | 35036 ft | 499 kts | 116° |
| 2026-04-26 02:31 | 34.23544 | 20.84913 | 35022 ft | 500 kts | 117° |
| 2026-04-26 02:31 | 34.20174 | 20.92217 | 35026 ft | 497 kts | 117° |
| 2026-04-26 02:32 | 34.16802 | 20.99512 | 35030 ft | 499 kts | 117° |
| 2026-04-26 02:32 | 34.13421 | 21.06813 | 35038 ft | 498 kts | 117° |
| 2026-04-26 02:33 | 34.10036 | 21.14106 | 35042 ft | 501 kts | 117° |
| 2026-04-26 02:33 | 34.06634 | 21.21419 | 35040 ft | 501 kts | 117° |
| 2026-04-26 02:34 | 34.03230 | 21.28722 | 35036 ft | 501 kts | 117° |
| 2026-04-26 02:34 | 33.99817 | 21.36030 | 35014 ft | 502 kts | 117° |
| 2026-04-26 02:35 | 33.96392 | 21.43349 | 35017 ft | 501 kts | 118° |
| 2026-04-26 02:35 | 33.92951 | 21.50685 | 35018 ft | 503 kts | 118° |
| 2026-04-26 02:36 | 33.89519 | 21.57987 | 35017 ft | 504 kts | 118° |
| 2026-04-26 02:36 | 33.86069 | 21.65313 | 35011 ft | 503 kts | 118° |
| 2026-04-26 02:37 | 33.82614 | 21.72634 | 35114 ft | 507 kts | 118° |
| 2026-04-26 02:37 | 33.80888 | 21.76286 | 35007 ft | 501 kts | 118° |
| 2026-04-26 02:37 | 33.79164 | 21.79931 | 34997 ft | 503 kts | 118° |
| 2026-04-26 02:38 | 33.75705 | 21.87231 | 34993 ft | 504 kts | 119° |
| 2026-04-26 02:38 | 33.72244 | 21.94519 | 34995 ft | 503 kts | 118° |
| 2026-04-26 02:39 | 33.68768 | 22.01825 | 35001 ft | 504 kts | 119° |
| 2026-04-26 02:39 | 33.65295 | 22.09109 | 34994 ft | 503 kts | 119° |
| 2026-04-26 02:40 | 33.61833 | 22.16357 | 34977 ft | 503 kts | 119° |
| 2026-04-26 02:40 | 33.58352 | 22.23627 | 34991 ft | 505 kts | 119° |
| 2026-04-26 02:41 | 33.54850 | 22.30928 | 34978 ft | 504 kts | 119° |
| 2026-04-26 02:41 | 33.51352 | 22.38206 | 34991 ft | 507 kts | 119° |
| 2026-04-26 02:42 | 33.47832 | 22.45514 | 34974 ft | 506 kts | 119° |
| 2026-04-26 02:42 | 33.44307 | 22.52820 | 34990 ft | 505 kts | 119° |
| 2026-04-26 02:43 | 33.39018 | 22.63751 | 34980 ft | 507 kts | 119° |
| 2026-04-26 02:43 | 33.35486 | 22.71032 | 34974 ft | 506 kts | 120° |
| 2026-04-26 02:44 | 33.31942 | 22.78325 | 34973 ft | 505 kts | 120° |
| 2026-04-26 02:44 | 33.28407 | 22.85583 | 34973 ft | 509 kts | 120° |
| 2026-04-26 02:45 | 33.24863 | 22.92845 | 34977 ft | 506 kts | 120° |
| 2026-04-26 02:45 | 33.21307 | 23.00119 | 34978 ft | 509 kts | 121° |
| 2026-04-26 02:46 | 33.17744 | 23.07390 | 34966 ft | 509 kts | 121° |
| 2026-04-26 02:46 | 33.14180 | 23.14650 | 34957 ft | 508 kts | 121° |
| 2026-04-26 02:47 | 33.10603 | 23.21921 | 34979 ft | 510 kts | 121° |
| 2026-04-26 02:47 | 33.07024 | 23.29182 | 34981 ft | 509 kts | 121° |
| 2026-04-26 02:48 | 33.03409 | 23.36503 | 34958 ft | 512 kts | 121° |
| 2026-04-26 02:48 | 32.99810 | 23.43776 | 34981 ft | 512 kts | 121° |
| 2026-04-26 02:49 | 32.96192 | 23.51074 | 34965 ft | 511 kts | 121° |
| 2026-04-26 02:49 | 32.92579 | 23.58344 | 34967 ft | 512 kts | 121° |
| 2026-04-26 02:50 | 32.88953 | 23.65628 | 34967 ft | 512 kts | 122° |
| 2026-04-26 02:50 | 32.85321 | 23.72909 | 34953 ft | 515 kts | 122° |
| 2026-04-26 02:51 | 32.81659 | 23.80237 | 34962 ft | 515 kts | 122° |
| 2026-04-26 02:51 | 32.78025 | 23.87494 | 34946 ft | 514 kts | 122° |
| 2026-04-26 02:52 | 32.74363 | 23.94794 | 34948 ft | 517 kts | 122° |
| 2026-04-26 02:52 | 32.70682 | 24.02115 | 34949 ft | 516 kts | 122° |
| 2026-04-26 02:53 | 32.66998 | 24.09428 | 34957 ft | 517 kts | 122° |
| 2026-04-26 02:53 | 32.63299 | 24.16755 | 34951 ft | 519 kts | 122° |
| 2026-04-26 02:54 | 32.59617 | 24.24036 | 34947 ft | 517 kts | 123° |
| 2026-04-26 02:54 | 32.55902 | 24.31367 | 34940 ft | 517 kts | 123° |
| 2026-04-26 02:55 | 32.52168 | 24.38720 | 34948 ft | 520 kts | 123° |
| 2026-04-26 02:55 | 32.48435 | 24.46058 | 34961 ft | 521 kts | 123° |
| 2026-04-26 02:56 | 32.44703 | 24.53380 | 34949 ft | 522 kts | 123° |
| 2026-04-26 02:56 | 32.40971 | 24.60687 | 34949 ft | 520 kts | 123° |
| 2026-04-26 02:57 | 32.37228 | 24.68000 | 34947 ft | 523 kts | 124° |
| 2026-04-26 02:57 | 32.33463 | 24.75344 | 34930 ft | 520 kts | 124° |
| 2026-04-26 02:58 | 32.29716 | 24.82636 | 34935 ft | 523 kts | 124° |
| 2026-04-26 02:58 | 32.25951 | 24.89951 | 34931 ft | 521 kts | 124° |
| 2026-04-26 02:59 | 32.22158 | 24.97304 | 34927 ft | 524 kts | 124° |
| 2026-04-26 02:59 | 32.18367 | 25.04642 | 34937 ft | 524 kts | 124° |
| 2026-04-26 03:00 | 32.14569 | 25.11977 | 34934 ft | 525 kts | 125° |
| 2026-04-26 03:00 | 32.10779 | 25.19283 | 34929 ft | 524 kts | 125° |
| 2026-04-26 03:01 | 32.06982 | 25.26588 | 34933 ft | 523 kts | 125° |
| 2026-04-26 03:01 | 32.03139 | 25.33966 | 34939 ft | 525 kts | 125° |
| 2026-04-26 03:02 | 31.99321 | 25.41282 | 34938 ft | 526 kts | 125° |
| 2026-04-26 03:02 | 31.95493 | 25.48604 | 34952 ft | 527 kts | 126° |
| 2026-04-26 03:03 | 31.91647 | 25.55946 | 34946 ft | 526 kts | 126° |
| 2026-04-26 03:03 | 31.87817 | 25.63243 | 34955 ft | 529 kts | 126° |
| 2026-04-26 03:04 | 31.83973 | 25.70554 | 34947 ft | 527 kts | 126° |
| 2026-04-26 03:04 | 31.80109 | 25.77888 | 34941 ft | 528 kts | 127° |
| 2026-04-26 03:05 | 31.76234 | 25.85227 | 34940 ft | 529 kts | 126° |
| 2026-04-26 03:05 | 31.72344 | 25.92584 | 34943 ft | 528 kts | 126° |
| 2026-04-26 03:06 | 31.68454 | 25.99923 | 34950 ft | 530 kts | 127° |
| 2026-04-26 03:06 | 31.64559 | 26.07260 | 34949 ft | 530 kts | 127° |
| 2026-04-26 03:07 | 31.60655 | 26.14598 | 34947 ft | 530 kts | 126° |
| 2026-04-26 03:07 | 31.56754 | 26.21917 | 34950 ft | 532 kts | 127° |
| 2026-04-26 03:08 | 31.52844 | 26.29241 | 34950 ft | 532 kts | 127° |
| 2026-04-26 03:08 | 31.48898 | 26.36616 | 34957 ft | 533 kts | 127° |
| 2026-04-26 03:09 | 31.44933 | 26.44014 | 34959 ft | 533 kts | 127° |
| 2026-04-26 03:09 | 31.40995 | 26.51344 | 34958 ft | 535 kts | 127° |
| 2026-04-26 03:10 | 31.37032 | 26.58711 | 34963 ft | 534 kts | 127° |
| 2026-04-26 03:10 | 31.33085 | 26.66031 | 34960 ft | 535 kts | 128° |
| 2026-04-26 03:11 | 31.29120 | 26.73374 | 34947 ft | 535 kts | 128° |
| 2026-04-26 03:11 | 31.25110 | 26.80783 | 34950 ft | 536 kts | 128° |
| 2026-04-26 03:12 | 31.21129 | 26.88126 | 34953 ft | 537 kts | 128° |
| 2026-04-26 03:12 | 31.17124 | 26.95500 | 34954 ft | 536 kts | 128° |
| 2026-04-26 03:13 | 31.13112 | 27.02869 | 34959 ft | 538 kts | 128° |
| 2026-04-26 03:13 | 31.09083 | 27.10260 | 34961 ft | 538 kts | 128° |
| 2026-04-26 03:14 | 31.05069 | 27.17610 | 34961 ft | 536 kts | 128° |
| 2026-04-26 03:14 | 31.01077 | 27.24904 | 34822 ft | 536 kts | 129° |
| 2026-04-26 03:15 | 30.97012 | 27.32313 | 34966 ft | 542 kts | 129° |
| 2026-04-26 03:15 | 30.94996 | 27.35985 | 35245 ft | 541 kts | 129° |
| 2026-04-26 03:15 | 30.92968 | 27.39674 | 35064 ft | 541 kts | 128° |
| 2026-04-26 03:16 | 30.88948 | 27.46982 | 34980 ft | 537 kts | 129° |
| 2026-04-26 03:16 | 30.84915 | 27.54296 | 34983 ft | 538 kts | 128° |
| 2026-04-26 03:17 | 30.80861 | 27.61634 | 34987 ft | 538 kts | 129° |
| 2026-04-26 03:17 | 30.76815 | 27.68944 | 34968 ft | 538 kts | 129° |
| 2026-04-26 03:18 | 30.72786 | 27.76212 | 34957 ft | 537 kts | 129° |
| 2026-04-26 03:18 | 30.68744 | 27.83488 | 34953 ft | 537 kts | 130° |
| 2026-04-26 03:19 | 30.64666 | 27.90814 | 34961 ft | 540 kts | 129° |
| 2026-04-26 03:19 | 30.60601 | 27.98106 | 34960 ft | 537 kts | 129° |
| 2026-04-26 03:20 | 30.56517 | 28.05418 | 34966 ft | 538 kts | 130° |
| 2026-04-26 03:20 | 30.52448 | 28.12686 | 34971 ft | 541 kts | 130° |
| 2026-04-26 03:21 | 30.48366 | 28.19969 | 34975 ft | 540 kts | 130° |
| 2026-04-26 03:21 | 30.44261 | 28.27275 | 34974 ft | 541 kts | 130° |
| 2026-04-26 03:22 | 30.40170 | 28.34548 | 34980 ft | 540 kts | 130° |
| 2026-04-26 03:22 | 30.36076 | 28.41809 | 34979 ft | 540 kts | 130° |
| 2026-04-26 03:23 | 30.31937 | 28.49139 | 34973 ft | 541 kts | 130° |
| 2026-04-26 03:23 | 30.27828 | 28.56398 | 34975 ft | 543 kts | 130° |
| 2026-04-26 03:24 | 30.23678 | 28.63721 | 34979 ft | 543 kts | 130° |
| 2026-04-26 03:24 | 30.19558 | 28.70978 | 34959 ft | 542 kts | 131° |
| 2026-04-26 03:25 | 30.15413 | 28.78264 | 34957 ft | 543 kts | 131° |
| 2026-04-26 03:25 | 30.11247 | 28.85572 | 34960 ft | 544 kts | 131° |
| 2026-04-26 03:26 | 30.07079 | 28.92873 | 34959 ft | 545 kts | 131° |
| 2026-04-26 03:26 | 30.02915 | 29.00154 | 34956 ft | 544 kts | 131° |
| 2026-04-26 03:27 | 29.98724 | 29.07467 | 34962 ft | 544 kts | 131° |
| 2026-04-26 03:27 | 29.94554 | 29.14732 | 34964 ft | 545 kts | 131° |
| 2026-04-26 03:28 | 29.90350 | 29.22042 | 34965 ft | 546 kts | 131° |
| 2026-04-26 03:28 | 29.86151 | 29.29330 | 34981 ft | 547 kts | 131° |
| 2026-04-26 03:29 | 29.81979 | 29.36562 | 34983 ft | 545 kts | 131° |
| 2026-04-26 03:29 | 29.77751 | 29.43873 | 34981 ft | 548 kts | 131° |
| 2026-04-26 03:30 | 29.73535 | 29.51151 | 34986 ft | 548 kts | 131° |
| 2026-04-26 03:30 | 29.69295 | 29.58460 | 34988 ft | 547 kts | 131° |
| 2026-04-26 03:31 | 29.65081 | 29.65711 | 34987 ft | 547 kts | 132° |
| 2026-04-26 03:31 | 29.60843 | 29.72990 | 34960 ft | 546 kts | 132° |
| 2026-04-26 03:32 | 29.56619 | 29.80229 | 34970 ft | 549 kts | 132° |
| 2026-04-26 03:32 | 29.52400 | 29.87452 | 34974 ft | 546 kts | 132° |
| 2026-04-26 03:33 | 29.48146 | 29.94717 | 34982 ft | 548 kts | 132° |
| 2026-04-26 03:33 | 29.43893 | 30.01970 | 34990 ft | 549 kts | 132° |
| 2026-04-26 03:34 | 29.39620 | 30.09245 | 34977 ft | 547 kts | 132° |
| 2026-04-26 03:34 | 29.35393 | 30.16428 | 34984 ft | 548 kts | 132° |
| 2026-04-26 03:35 | 29.31126 | 30.23667 | 34980 ft | 548 kts | 132° |
| 2026-04-26 03:35 | 29.26854 | 30.30903 | 34977 ft | 545 kts | 132° |
| 2026-04-26 03:36 | 29.22591 | 30.38106 | 34984 ft | 549 kts | 132° |
| 2026-04-26 03:36 | 29.18313 | 30.45327 | 34985 ft | 550 kts | 132° |
| 2026-04-26 03:37 | 29.14053 | 30.52504 | 34986 ft | 548 kts | 132° |
| 2026-04-26 03:37 | 29.09747 | 30.59745 | 34988 ft | 548 kts | 132° |
| 2026-04-26 03:38 | 29.05462 | 30.66939 | 34963 ft | 549 kts | 133° |
| 2026-04-26 03:38 | 29.01175 | 30.74126 | 34962 ft | 547 kts | 133° |
| 2026-04-26 03:39 | 28.96872 | 30.81325 | 34959 ft | 546 kts | 133° |
| 2026-04-26 03:39 | 28.92598 | 30.88465 | 34962 ft | 547 kts | 133° |
| 2026-04-26 03:40 | 28.88304 | 30.95622 | 34971 ft | 549 kts | 133° |
| 2026-04-26 03:40 | 28.83990 | 31.02804 | 34972 ft | 546 kts | 133° |
| 2026-04-26 03:41 | 28.79715 | 31.09907 | 34980 ft | 549 kts | 133° |
| 2026-04-26 03:41 | 28.75414 | 31.17043 | 34982 ft | 548 kts | 133° |
| 2026-04-26 03:42 | 28.71094 | 31.24196 | 34729 ft | 549 kts | 133° |
| 2026-04-26 03:42 | 28.68930 | 31.27777 | 34985 ft | 547 kts | 133° |
| 2026-04-26 03:42 | 28.66765 | 31.31352 | 34970 ft | 549 kts | 133° |
| 2026-04-26 03:43 | 28.62423 | 31.38521 | 34948 ft | 547 kts | 133° |
| 2026-04-26 03:43 | 28.60247 | 31.42107 | 35060 ft | 549 kts | 133° |
| 2026-04-26 03:43 | 28.58083 | 31.45672 | 34935 ft | 548 kts | 133° |
| 2026-04-26 03:44 | 28.53741 | 31.52814 | 35039 ft | 550 kts | 133° |
| 2026-04-26 03:44 | 28.49414 | 31.59923 | 35005 ft | 548 kts | 133° |
| 2026-04-26 03:45 | 28.45074 | 31.67037 | 34984 ft | 546 kts | 134° |
| 2026-04-26 03:45 | 28.40720 | 31.74162 | 34995 ft | 550 kts | 134° |
| 2026-04-26 03:46 | 28.36360 | 31.81288 | 35154 ft | 548 kts | 134° |
| 2026-04-26 03:46 | 28.34187 | 31.84833 | 34985 ft | 546 kts | 134° |
| 2026-04-26 03:47 | 28.29853 | 31.91902 | 34991 ft | 543 kts | 134° |
| 2026-04-26 03:47 | 28.25507 | 31.98971 | 34990 ft | 547 kts | 134° |
| 2026-04-26 03:48 | 28.21157 | 32.06039 | 34990 ft | 545 kts | 134° |
| 2026-04-26 03:48 | 28.16802 | 32.13102 | 35002 ft | 546 kts | 133° |
| 2026-04-26 03:49 | 28.12415 | 32.20205 | 35017 ft | 547 kts | 134° |
| 2026-04-26 03:49 | 28.08067 | 32.27233 | 35020 ft | 547 kts | 134° |
| 2026-04-26 03:50 | 28.03692 | 32.34296 | 35027 ft | 547 kts | 134° |
| 2026-04-26 03:50 | 27.99305 | 32.41365 | 35029 ft | 548 kts | 134° |
| 2026-04-26 03:51 | 27.94902 | 32.48446 | 35021 ft | 549 kts | 134° |
| 2026-04-26 03:51 | 27.90523 | 32.55482 | 35017 ft | 547 kts | 134° |
| 2026-04-26 03:52 | 27.86087 | 32.62592 | 35026 ft | 551 kts | 134° |
| 2026-04-26 03:52 | 27.81677 | 32.69655 | 34993 ft | 549 kts | 134° |
| 2026-04-26 03:53 | 27.77277 | 32.76690 | 34991 ft | 547 kts | 134° |
| 2026-04-26 03:53 | 27.72868 | 32.83726 | 34976 ft | 547 kts | 134° |
| 2026-04-26 03:54 | 27.68478 | 32.90718 | 34979 ft | 551 kts | 134° |
| 2026-04-26 03:54 | 27.64047 | 32.97767 | 34979 ft | 549 kts | 134° |
| 2026-04-26 03:55 | 27.59592 | 33.04843 | 34985 ft | 551 kts | 134° |
| 2026-04-26 03:55 | 27.55151 | 33.11886 | 34978 ft | 551 kts | 134° |
| 2026-04-26 03:56 | 27.50709 | 33.18922 | 34961 ft | 548 kts | 134° |
| 2026-04-26 03:56 | 27.46295 | 33.25902 | 34956 ft | 546 kts | 134° |
| 2026-04-26 03:57 | 27.41867 | 33.32887 | 34950 ft | 550 kts | 134° |
| 2026-04-26 03:57 | 27.37443 | 33.39865 | 34950 ft | 548 kts | 133° |
| 2026-04-26 03:57 | 27.35414 | 33.43581 | 34949 ft | 559 kts | 126° |
| 2026-04-26 03:58 | 27.33572 | 33.47401 | 34940 ft | 559 kts | 126° |
| 2026-04-26 03:58 | 27.29857 | 33.55100 | 34925 ft | 558 kts | 126° |
| 2026-04-26 03:59 | 27.26110 | 33.62759 | 34921 ft | 558 kts | 126° |
| 2026-04-26 03:59 | 27.22366 | 33.70345 | 34888 ft | 556 kts | 127° |
| 2026-04-26 04:00 | 27.18592 | 33.77948 | 34878 ft | 556 kts | 126° |
| 2026-04-26 04:00 | 27.15481 | 33.85997 | 34883 ft | 565 kts | 118° |
| 2026-04-26 04:01 | 27.12572 | 33.94221 | 34890 ft | 566 kts | 118° |
| 2026-04-26 04:01 | 27.09664 | 34.02416 | 34878 ft | 566 kts | 118° |
| 2026-04-26 04:02 | 27.06761 | 34.10570 | 34886 ft | 563 kts | 118° |
| 2026-04-26 04:02 | 27.03834 | 34.18759 | 34890 ft | 566 kts | 118° |
| 2026-04-26 04:03 | 27.00897 | 34.26958 | 34879 ft | 566 kts | 118° |
| 2026-04-26 04:03 | 26.97944 | 34.35179 | 34885 ft | 566 kts | 118° |
| 2026-04-26 04:04 | 26.95005 | 34.43343 | 34885 ft | 566 kts | 118° |
| 2026-04-26 04:04 | 26.92067 | 34.51485 | 34888 ft | 566 kts | 118° |
| 2026-04-26 04:05 | 26.89119 | 34.59638 | 34899 ft | 566 kts | 118° |
| 2026-04-26 04:05 | 26.86161 | 34.67804 | 34878 ft | 565 kts | 118° |
| 2026-04-26 04:06 | 26.83204 | 34.75948 | 34881 ft | 566 kts | 118° |
| 2026-04-26 04:06 | 26.80243 | 34.84087 | 34885 ft | 564 kts | 119° |
| 2026-04-26 04:07 | 26.77296 | 34.92167 | 34886 ft | 565 kts | 118° |
| 2026-04-26 04:07 | 26.74327 | 35.00299 | 34889 ft | 564 kts | 118° |
| 2026-04-26 04:08 | 26.71340 | 35.08460 | 34891 ft | 567 kts | 118° |
| 2026-04-26 04:08 | 26.68368 | 35.16572 | 34897 ft | 563 kts | 118° |
| 2026-04-26 04:09 | 26.65393 | 35.24671 | 34899 ft | 564 kts | 118° |
| 2026-04-26 04:09 | 26.62426 | 35.32729 | 34903 ft | 564 kts | 118° |
| 2026-04-26 04:10 | 26.59431 | 35.40848 | 34905 ft | 565 kts | 118° |
| 2026-04-26 04:10 | 26.56430 | 35.48970 | 34909 ft | 564 kts | 118° |
| 2026-04-26 04:11 | 26.53366 | 35.57030 | 34909 ft | 562 kts | 119° |
| 2026-04-26 04:11 | 26.50304 | 35.65032 | 34913 ft | 562 kts | 120° |
| 2026-04-26 04:12 | 26.47238 | 35.73033 | 34886 ft | 563 kts | 119° |
| 2026-04-26 04:12 | 26.44159 | 35.81057 | 34888 ft | 562 kts | 120° |
| 2026-04-26 04:13 | 26.41084 | 35.89057 | 34895 ft | 562 kts | 120° |
| 2026-04-26 04:13 | 26.37990 | 35.97093 | 34893 ft | 561 kts | 119° |
| 2026-04-26 04:14 | 26.34915 | 36.05065 | 34888 ft | 560 kts | 120° |
| 2026-04-26 04:14 | 26.31848 | 36.12999 | 34888 ft | 562 kts | 119° |
| 2026-04-26 04:15 | 26.28743 | 36.21017 | 34890 ft | 560 kts | 120° |
| 2026-04-26 04:15 | 26.25661 | 36.28958 | 34904 ft | 562 kts | 119° |
| 2026-04-26 04:16 | 26.22563 | 36.36927 | 34902 ft | 561 kts | 119° |
| 2026-04-26 04:16 | 26.19723 | 36.45039 | 34901 ft | 568 kts | 109° |
| 2026-04-26 04:17 | 26.18650 | 36.53773 | 34905 ft | 577 kts | 91° |
| 2026-04-26 04:17 | 26.19311 | 36.62696 | 34912 ft | 578 kts | 84° |
| 2026-04-26 04:18 | 26.20207 | 36.71566 | 34900 ft | 577 kts | 84° |
| 2026-04-26 04:18 | 26.21099 | 36.80475 | 34907 ft | 577 kts | 84° |
| 2026-04-26 04:19 | 26.21978 | 36.89329 | 34924 ft | 578 kts | 84° |
| 2026-04-26 04:19 | 26.22853 | 36.98212 | 34940 ft | 578 kts | 84° |
| 2026-04-26 04:20 | 26.23720 | 37.07089 | 34958 ft | 577 kts | 84° |
| 2026-04-26 04:20 | 26.24583 | 37.15980 | 34984 ft | 578 kts | 84° |
| 2026-04-26 04:21 | 26.25434 | 37.24799 | 35011 ft | 577 kts | 84° |
| 2026-04-26 04:21 | 26.26280 | 37.33637 | 35051 ft | 576 kts | 84° |
| 2026-04-26 04:22 | 26.27130 | 37.42576 | 35096 ft | 577 kts | 84° |
| 2026-04-26 04:22 | 26.27962 | 37.51384 | 35138 ft | 576 kts | 84° |
| 2026-04-26 04:23 | 26.28799 | 37.60300 | 35125 ft | 577 kts | 84° |
| 2026-04-26 04:23 | 26.29628 | 37.69197 | 35088 ft | 576 kts | 84° |
| 2026-04-26 04:24 | 26.30455 | 37.78123 | 35066 ft | 578 kts | 84° |
| 2026-04-26 04:24 | 26.31276 | 37.87037 | 35058 ft | 576 kts | 84° |
| 2026-04-26 04:25 | 26.32087 | 37.95887 | 35054 ft | 577 kts | 84° |
| 2026-04-26 04:25 | 26.32895 | 38.04766 | 35035 ft | 576 kts | 85° |
| 2026-04-26 04:26 | 26.33694 | 38.13614 | 35043 ft | 575 kts | 84° |
| 2026-04-26 04:26 | 26.34485 | 38.22430 | 35047 ft | 576 kts | 84° |
| 2026-04-26 04:27 | 26.35275 | 38.31313 | 35061 ft | 575 kts | 84° |
| 2026-04-26 04:27 | 26.36057 | 38.40177 | 35091 ft | 575 kts | 84° |
| 2026-04-26 04:28 | 26.36834 | 38.49041 | 35104 ft | 575 kts | 84° |
| 2026-04-26 04:28 | 26.37602 | 38.57882 | 35123 ft | 576 kts | 84° |
| 2026-04-26 04:29 | 26.38376 | 38.66841 | 35126 ft | 575 kts | 85° |
| 2026-04-26 04:29 | 26.39136 | 38.75717 | 35133 ft | 574 kts | 85° |
| 2026-04-26 04:30 | 26.39886 | 38.84533 | 35137 ft | 575 kts | 85° |
| 2026-04-26 04:30 | 26.40636 | 38.93408 | 35138 ft | 575 kts | 85° |
| 2026-04-26 04:31 | 26.41378 | 39.02259 | 35140 ft | 574 kts | 85° |
| 2026-04-26 04:31 | 26.42112 | 39.11090 | 35142 ft | 573 kts | 85° |
| 2026-04-26 04:32 | 26.42847 | 39.19985 | 35145 ft | 574 kts | 85° |
| 2026-04-26 04:32 | 26.43559 | 39.28796 | 35149 ft | 573 kts | 86° |
| 2026-04-26 04:33 | 26.44013 | 39.37687 | 35154 ft | 574 kts | 87° |
| 2026-04-26 04:33 | 26.44437 | 39.46533 | 35161 ft | 574 kts | 87° |
| 2026-04-26 04:34 | 26.44864 | 39.55371 | 35168 ft | 572 kts | 87° |
| 2026-04-26 04:34 | 26.45291 | 39.64234 | 35178 ft | 574 kts | 87° |
| 2026-04-26 04:35 | 26.45719 | 39.73157 | 35165 ft | 572 kts | 88° |
| 2026-04-26 04:35 | 26.46139 | 39.82011 | 35167 ft | 573 kts | 88° |
| 2026-04-26 04:36 | 26.46558 | 39.90923 | 35171 ft | 573 kts | 87° |
| 2026-04-26 04:36 | 26.46967 | 39.99736 | 35176 ft | 572 kts | 88° |
| 2026-04-26 04:37 | 26.47375 | 40.08644 | 35178 ft | 571 kts | 88° |
| 2026-04-26 04:37 | 26.47774 | 40.17462 | 35180 ft | 572 kts | 87° |
| 2026-04-26 04:38 | 26.48171 | 40.26348 | 35181 ft | 571 kts | 88° |
| 2026-04-26 04:38 | 26.48560 | 40.35181 | 35176 ft | 571 kts | 88° |
| 2026-04-26 04:39 | 26.48942 | 40.43988 | 35161 ft | 571 kts | 88° |
| 2026-04-26 04:39 | 26.49323 | 40.52884 | 35151 ft | 571 kts | 88° |
| 2026-04-26 04:40 | 26.49694 | 40.61684 | 35147 ft | 572 kts | 87° |
| 2026-04-26 04:40 | 26.50061 | 40.70557 | 35118 ft | 570 kts | 88° |
| 2026-04-26 04:41 | 26.50422 | 40.79396 | 35116 ft | 570 kts | 88° |
| 2026-04-26 04:41 | 26.50778 | 40.88253 | 35114 ft | 570 kts | 88° |
| 2026-04-26 04:42 | 26.51128 | 40.97094 | 35113 ft | 570 kts | 88° |
| 2026-04-26 04:42 | 26.51292 | 41.05871 | 35113 ft | 568 kts | 95° |
| 2026-04-26 04:43 | 26.50710 | 41.14708 | 35106 ft | 568 kts | 96° |
| 2026-04-26 04:43 | 26.50086 | 41.23534 | 35103 ft | 568 kts | 96° |
| 2026-04-26 04:44 | 26.49462 | 41.32283 | 35104 ft | 567 kts | 96° |
| 2026-04-26 04:44 | 26.48833 | 41.41058 | 35106 ft | 567 kts | 96° |
| 2026-04-26 04:45 | 26.48198 | 41.49834 | 35112 ft | 568 kts | 96° |
| 2026-04-26 04:45 | 26.47563 | 41.58548 | 35110 ft | 567 kts | 96° |
| 2026-04-26 04:46 | 26.46917 | 41.67341 | 35092 ft | 566 kts | 96° |
| 2026-04-26 04:46 | 26.46271 | 41.76053 | 35092 ft | 565 kts | 96° |
| 2026-04-26 04:47 | 26.45613 | 41.84862 | 35095 ft | 567 kts | 96° |
| 2026-04-26 04:47 | 26.44956 | 41.93580 | 35096 ft | 565 kts | 96° |
| 2026-04-26 04:48 | 26.43961 | 42.06654 | 35103 ft | 565 kts | 97° |
| 2026-04-26 04:48 | 26.43290 | 42.15387 | 35109 ft | 564 kts | 97° |
| 2026-04-26 04:49 | 26.42612 | 42.24141 | 35109 ft | 564 kts | 97° |
| 2026-04-26 04:49 | 26.41933 | 42.32837 | 35116 ft | 564 kts | 96° |
| 2026-04-26 04:50 | 26.41248 | 42.41541 | 35116 ft | 565 kts | 96° |
| 2026-04-26 04:50 | 26.40557 | 42.50252 | 35118 ft | 564 kts | 97° |
| 2026-04-26 04:51 | 26.39861 | 42.58955 | 35112 ft | 564 kts | 97° |
| 2026-04-26 04:51 | 26.39161 | 42.67646 | 35090 ft | 565 kts | 97° |
| 2026-04-26 04:52 | 26.38454 | 42.76359 | 35094 ft | 565 kts | 97° |
| 2026-04-26 04:52 | 26.37743 | 42.85049 | 35094 ft | 564 kts | 97° |
| 2026-04-26 04:53 | 26.37021 | 42.93808 | 35095 ft | 564 kts | 97° |
| 2026-04-26 04:53 | 26.36301 | 43.02483 | 35095 ft | 564 kts | 97° |
| 2026-04-26 04:54 | 26.35575 | 43.11154 | 35094 ft | 564 kts | 97° |
| 2026-04-26 04:54 | 26.34846 | 43.19810 | 35095 ft | 563 kts | 97° |
| 2026-04-26 04:55 | 26.34111 | 43.28468 | 35088 ft | 564 kts | 97° |
| 2026-04-26 04:55 | 26.33366 | 43.37174 | 35081 ft | 561 kts | 97° |
| 2026-04-26 04:56 | 26.32621 | 43.45829 | 35071 ft | 561 kts | 97° |
| 2026-04-26 04:56 | 26.31867 | 43.54520 | 35065 ft | 561 kts | 97° |
| 2026-04-26 04:57 | 26.31115 | 43.63129 | 35053 ft | 560 kts | 97° |
| 2026-04-26 04:57 | 26.30357 | 43.71746 | 35022 ft | 560 kts | 97° |
| 2026-04-26 04:58 | 26.29820 | 43.80424 | 35027 ft | 562 kts | 91° |
| 2026-04-26 04:58 | 26.29888 | 43.89130 | 35027 ft | 562 kts | 90° |
| 2026-04-26 04:59 | 26.29967 | 43.97834 | 35045 ft | 562 kts | 90° |
| 2026-04-26 04:59 | 26.30037 | 44.06542 | 35051 ft | 560 kts | 90° |
| 2026-04-26 05:00 | 26.30101 | 44.15212 | 35055 ft | 562 kts | 90° |
| 2026-04-26 05:00 | 26.30157 | 44.23882 | 35064 ft | 562 kts | 90° |
| 2026-04-26 05:01 | 26.30209 | 44.32604 | 35065 ft | 562 kts | 90° |
| 2026-04-26 05:01 | 26.30255 | 44.41336 | 35067 ft | 563 kts | 90° |
| 2026-04-26 05:02 | 26.30507 | 44.50055 | 35063 ft | 562 kts | 82° |
| 2026-04-26 05:02 | 26.32455 | 44.58436 | 35074 ft | 560 kts | 67° |
| 2026-04-26 05:03 | 26.35158 | 44.66585 | 35057 ft | 558 kts | 67° |
| 2026-04-26 05:03 | 26.37853 | 44.74662 | 35053 ft | 559 kts | 67° |
| 2026-04-26 05:04 | 26.40554 | 44.82766 | 35060 ft | 560 kts | 66° |
| 2026-04-26 05:04 | 26.43258 | 44.90895 | 35067 ft | 560 kts | 67° |
| 2026-04-26 05:05 | 26.45949 | 44.99001 | 35066 ft | 560 kts | 67° |
| 2026-04-26 05:05 | 26.48647 | 45.07147 | 35070 ft | 560 kts | 66° |
| 2026-04-26 05:06 | 26.51348 | 45.15313 | 35067 ft | 560 kts | 66° |
| 2026-04-26 05:06 | 26.54026 | 45.23424 | 35062 ft | 560 kts | 67° |
| 2026-04-26 05:07 | 26.56710 | 45.31572 | 35055 ft | 560 kts | 66° |
| 2026-04-26 05:07 | 26.59406 | 45.39775 | 35057 ft | 560 kts | 66° |
| 2026-04-26 05:08 | 26.62068 | 45.47892 | 35057 ft | 560 kts | 66° |
| 2026-04-26 05:08 | 26.64742 | 45.56062 | 35054 ft | 560 kts | 66° |
| 2026-04-26 05:09 | 26.67410 | 45.64231 | 35055 ft | 561 kts | 67° |
| 2026-04-26 05:09 | 26.70069 | 45.72396 | 35033 ft | 561 kts | 67° |
| 2026-04-26 05:10 | 26.72743 | 45.80619 | 35032 ft | 561 kts | 67° |
| 2026-04-26 05:10 | 26.75397 | 45.88803 | 35030 ft | 561 kts | 67° |
| 2026-04-26 05:11 | 26.78058 | 45.97025 | 35029 ft | 562 kts | 67° |
| 2026-04-26 05:11 | 26.80700 | 46.05207 | 35028 ft | 561 kts | 67° |
| 2026-04-26 05:12 | 26.83341 | 46.13404 | 35023 ft | 562 kts | 67° |
| 2026-04-26 05:12 | 26.85989 | 46.21641 | 35023 ft | 561 kts | 67° |
| 2026-04-26 05:13 | 26.88625 | 46.29862 | 35023 ft | 561 kts | 67° |
| 2026-04-26 05:13 | 26.91136 | 46.38144 | 35024 ft | 564 kts | 74° |
| 2026-04-26 05:14 | 26.92310 | 46.46827 | 35029 ft | 567 kts | 83° |
| 2026-04-26 05:14 | 26.93149 | 46.55587 | 35026 ft | 568 kts | 83° |
| 2026-04-26 05:15 | 26.93971 | 46.64326 | 35028 ft | 567 kts | 83° |
| 2026-04-26 05:15 | 26.94788 | 46.73098 | 35008 ft | 567 kts | 83° |
| 2026-04-26 05:16 | 26.95601 | 46.81927 | 35006 ft | 568 kts | 83° |
| 2026-04-26 05:16 | 26.96399 | 46.90659 | 35009 ft | 567 kts | 83° |
| 2026-04-26 05:17 | 26.97199 | 46.99473 | 35011 ft | 566 kts | 83° |
| 2026-04-26 05:17 | 26.97990 | 47.08271 | 35019 ft | 568 kts | 83° |
| 2026-04-26 05:18 | 26.98777 | 47.17079 | 35025 ft | 567 kts | 84° |
| 2026-04-26 05:18 | 26.99554 | 47.25845 | 35027 ft | 567 kts | 83° |
| 2026-04-26 05:19 | 27.00328 | 47.34635 | 35019 ft | 566 kts | 83° |
| 2026-04-26 05:19 | 27.01091 | 47.43364 | 35022 ft | 566 kts | 83° |
| 2026-04-26 05:20 | 27.01854 | 47.52157 | 35021 ft | 567 kts | 83° |
| 2026-04-26 05:20 | 27.02609 | 47.60920 | 35021 ft | 564 kts | 83° |
| 2026-04-26 05:21 | 27.03358 | 47.69682 | 35003 ft | 565 kts | 84° |
| 2026-04-26 05:21 | 27.04103 | 47.78453 | 35004 ft | 564 kts | 83° |
| 2026-04-26 05:22 | 27.04840 | 47.87206 | 35001 ft | 565 kts | 83° |
| 2026-04-26 05:22 | 27.05571 | 47.95949 | 35000 ft | 563 kts | 84° |
| 2026-04-26 05:23 | 27.06076 | 48.04687 | 35002 ft | 563 kts | 86° |
| 2026-04-26 05:23 | 27.06477 | 48.13513 | 34996 ft | 564 kts | 86° |
| 2026-04-26 05:24 | 27.06877 | 48.22220 | 35000 ft | 563 kts | 86° |
| 2026-04-26 05:24 | 27.07282 | 48.31032 | 34996 ft | 563 kts | 86° |
| 2026-04-26 05:25 | 27.07684 | 48.39788 | 34991 ft | 564 kts | 86° |
| 2026-04-26 05:25 | 27.08082 | 48.48556 | 34990 ft | 563 kts | 86° |
| 2026-04-26 05:26 | 27.08477 | 48.57325 | 34989 ft | 563 kts | 86° |
| 2026-04-26 05:26 | 27.08866 | 48.66091 | 34985 ft | 563 kts | 86° |
| 2026-04-26 05:27 | 27.09250 | 48.74852 | 34969 ft | 563 kts | 86° |
| 2026-04-26 05:27 | 27.09628 | 48.83585 | 34969 ft | 563 kts | 86° |
| 2026-04-26 05:28 | 27.09657 | 48.92376 | 34970 ft | 563 kts | 92° |
| 2026-04-26 05:28 | 27.09261 | 49.01118 | 34967 ft | 562 kts | 93° |
| 2026-04-26 05:29 | 27.08854 | 49.09876 | 34966 ft | 561 kts | 93° |
| 2026-04-26 05:29 | 27.08443 | 49.18624 | 34964 ft | 561 kts | 92° |
| 2026-04-26 05:30 | 27.08028 | 49.27349 | 34968 ft | 562 kts | 93° |
| 2026-04-26 05:30 | 27.07609 | 49.36069 | 34969 ft | 562 kts | 92° |
| 2026-04-26 05:31 | 27.07188 | 49.44788 | 34966 ft | 560 kts | 92° |
| 2026-04-26 05:31 | 27.06762 | 49.53519 | 34961 ft | 562 kts | 92° |
| 2026-04-26 05:32 | 27.06331 | 49.62246 | 34960 ft | 560 kts | 93° |
| 2026-04-26 05:32 | 27.05894 | 49.70970 | 34939 ft | 559 kts | 93° |
| 2026-04-26 05:33 | 27.05455 | 49.79651 | 34940 ft | 561 kts | 93° |
| 2026-04-26 05:33 | 27.05007 | 49.88383 | 34942 ft | 560 kts | 92° |
| 2026-04-26 05:34 | 27.04557 | 49.97045 | 34944 ft | 560 kts | 93° |
| 2026-04-26 05:34 | 27.04514 | 50.05773 | 34945 ft | 559 kts | 88° |
| 2026-04-26 05:35 | 27.04643 | 50.14472 | 34948 ft | 560 kts | 88° |
| 2026-04-26 05:35 | 27.04753 | 50.23141 | 34952 ft | 559 kts | 88° |
| 2026-04-26 05:36 | 27.04823 | 50.31857 | 34947 ft | 559 kts | 91° |
| 2026-04-26 05:36 | 27.03543 | 50.40443 | 34961 ft | 558 kts | 109° |
| 2026-04-26 05:37 | 27.00714 | 50.48468 | 34962 ft | 556 kts | 115° |
| 2026-04-26 05:37 | 26.97690 | 50.56482 | 34963 ft | 555 kts | 115° |
| 2026-04-26 05:38 | 26.94682 | 50.64414 | 34958 ft | 555 kts | 115° |
| 2026-04-26 05:38 | 26.91653 | 50.72376 | 34943 ft | 555 kts | 116° |
| 2026-04-26 05:39 | 26.88641 | 50.80271 | 34948 ft | 554 kts | 115° |
| 2026-04-26 05:39 | 26.85605 | 50.88214 | 34958 ft | 554 kts | 115° |
| 2026-04-26 05:40 | 26.82575 | 50.96121 | 34962 ft | 555 kts | 115° |
| 2026-04-26 05:40 | 26.79548 | 51.04066 | 34963 ft | 554 kts | 115° |
| 2026-04-26 05:41 | 26.76584 | 51.12000 | 34966 ft | 555 kts | 112° |
| 2026-04-26 05:41 | 26.74013 | 51.20116 | 34970 ft | 556 kts | 111° |
| 2026-04-26 05:42 | 26.71448 | 51.28224 | 34971 ft | 554 kts | 111° |
| 2026-04-26 05:42 | 26.68846 | 51.36382 | 34973 ft | 557 kts | 111° |
| 2026-04-26 05:43 | 26.66238 | 51.44510 | 34975 ft | 555 kts | 111° |
| 2026-04-26 05:43 | 26.63638 | 51.52619 | 34977 ft | 554 kts | 111° |
| 2026-04-26 05:44 | 26.61039 | 51.60710 | 34979 ft | 554 kts | 110° |
| 2026-04-26 05:44 | 26.58441 | 51.68774 | 34960 ft | 554 kts | 111° |
| 2026-04-26 05:45 | 26.55838 | 51.76830 | 34963 ft | 554 kts | 111° |
| 2026-04-26 05:45 | 26.53217 | 51.84927 | 34964 ft | 552 kts | 111° |
| 2026-04-26 05:46 | 26.50577 | 51.92975 | 34965 ft | 553 kts | 111° |
| 2026-04-26 05:46 | 26.47922 | 52.00948 | 34969 ft | 553 kts | 111° |
| 2026-04-26 05:47 | 26.45235 | 52.09002 | 34967 ft | 552 kts | 111° |
| 2026-04-26 05:47 | 26.42566 | 52.16991 | 34964 ft | 551 kts | 111° |
| 2026-04-26 05:48 | 26.39881 | 52.25008 | 34966 ft | 552 kts | 111° |
| 2026-04-26 05:48 | 26.37196 | 52.33006 | 34965 ft | 551 kts | 111° |
| 2026-04-26 05:49 | 26.32968 | 52.44906 | 34967 ft | 550 kts | 115° |
| 2026-04-26 05:50 | 26.29948 | 52.52696 | 34965 ft | 550 kts | 114° |
| 2026-04-26 05:50 | 26.26916 | 52.60533 | 34959 ft | 550 kts | 114° |
| 2026-04-26 05:51 | 26.23891 | 52.68360 | 34944 ft | 550 kts | 114° |
| 2026-04-26 05:51 | 26.20908 | 52.76136 | 34944 ft | 549 kts | 114° |
| 2026-04-26 05:52 | 26.17900 | 52.83978 | 34945 ft | 549 kts | 114° |
| 2026-04-26 05:52 | 26.14901 | 52.91783 | 34945 ft | 550 kts | 114° |
| 2026-04-26 05:53 | 26.11893 | 52.99600 | 34948 ft | 552 kts | 114° |
| 2026-04-26 05:53 | 26.08916 | 53.07422 | 34945 ft | 551 kts | 113° |
| 2026-04-26 05:54 | 26.06012 | 53.15352 | 34948 ft | 551 kts | 113° |
| 2026-04-26 05:54 | 26.03109 | 53.23259 | 34947 ft | 550 kts | 112° |
| 2026-04-26 05:55 | 26.00218 | 53.31109 | 34940 ft | 549 kts | 113° |
| 2026-04-26 05:55 | 25.97315 | 53.38970 | 34941 ft | 550 kts | 112° |
| 2026-04-26 05:56 | 25.94418 | 53.46798 | 34939 ft | 550 kts | 112° |
| 2026-04-26 05:56 | 25.91567 | 53.54736 | 34935 ft | 551 kts | 111° |
| 2026-04-26 05:57 | 25.88860 | 53.62643 | 34931 ft | 549 kts | 110° |
| 2026-04-26 05:57 | 25.86149 | 53.70530 | 34910 ft | 549 kts | 111° |
| 2026-04-26 05:58 | 25.83421 | 53.78424 | 34906 ft | 548 kts | 111° |
| 2026-04-26 05:58 | 25.80688 | 53.86301 | 34911 ft | 549 kts | 111° |
| 2026-04-26 05:59 | 25.77960 | 53.94144 | 34906 ft | 547 kts | 111° |
| 2026-04-26 05:59 | 25.75208 | 54.02045 | 34901 ft | 548 kts | 110° |
| 2026-04-26 06:00 | 25.72732 | 54.10060 | 34908 ft | 548 kts | 108° |
| 2026-04-26 06:00 | 25.70311 | 54.18018 | 34903 ft | 548 kts | 108° |
| 2026-04-26 06:01 | 25.67877 | 54.25963 | 34900 ft | 545 kts | 108° |
| 2026-04-26 06:01 | 25.65423 | 54.33935 | 34901 ft | 545 kts | 108° |
| 2026-04-26 06:02 | 25.62954 | 54.41915 | 34902 ft | 545 kts | 108° |
| 2026-04-26 06:02 | 25.60491 | 54.49850 | 34911 ft | 545 kts | 108° |
| 2026-04-26 06:03 | 25.58020 | 54.57787 | 34924 ft | 546 kts | 108° |
| 2026-04-26 06:03 | 25.56434 | 54.61579 | 34907 ft | 546 kts | 123° |
| 2026-04-26 06:03 | 25.54030 | 54.64858 | 34918 ft | 541 kts | 140° |
| 2026-04-26 06:03 | 25.51050 | 54.67312 | 34909 ft | 530 kts | 156° |
| 2026-04-26 06:04 | 25.47663 | 54.68874 | 34908 ft | 518 kts | 172° |
| 2026-04-26 06:04 | 25.44164 | 54.69481 | 34912 ft | 504 kts | 186° |
| 2026-04-26 06:04 | 25.40724 | 54.69194 | 34916 ft | 488 kts | 200° |
| 2026-04-26 06:04 | 25.37533 | 54.68103 | 34915 ft | 476 kts | 213° |
| 2026-04-26 06:05 | 25.34686 | 54.66307 | 34911 ft | 463 kts | 225° |
| 2026-04-26 06:05 | 25.32329 | 54.63969 | 34917 ft | 448 kts | 236° |
| 2026-04-26 06:05 | 25.30503 | 54.61217 | 34919 ft | 437 kts | 247° |
| 2026-04-26 06:05 | 25.29250 | 54.58215 | 34916 ft | 426 kts | 257° |
| 2026-04-26 06:06 | 25.28567 | 54.55079 | 34922 ft | 419 kts | 267° |
| 2026-04-26 06:06 | 25.28854 | 54.48775 | 34901 ft | 411 kts | 285° |
| 2026-04-26 06:07 | 25.30425 | 54.42703 | 34896 ft | 409 kts | 288° |
| 2026-04-26 06:07 | 25.32142 | 54.36728 | 34901 ft | 411 kts | 289° |
| 2026-04-26 06:08 | 25.33956 | 54.30732 | 34908 ft | 411 kts | 292° |
| 2026-04-26 06:08 | 25.36969 | 54.25452 | 34913 ft | 412 kts | 310° |
| 2026-04-26 06:09 | 25.41644 | 54.21688 | 34915 ft | 422 kts | 330° |
| 2026-04-26 06:09 | 25.47424 | 54.20106 | 34917 ft | 442 kts | 351° |
| 2026-04-26 06:09 | 25.50549 | 54.20294 | 34912 ft | 454 kts | 1° |
| 2026-04-26 06:10 | 25.53628 | 54.21199 | 34906 ft | 468 kts | 13° |
| 2026-04-26 06:10 | 25.56593 | 54.22873 | 34906 ft | 484 kts | 26° |
| 2026-04-26 06:10 | 25.59246 | 54.25300 | 34904 ft | 501 kts | 39° |
| 2026-04-26 06:10 | 25.61369 | 54.28369 | 34901 ft | 513 kts | 53° |
| 2026-04-26 06:11 | 25.62849 | 54.32027 | 34903 ft | 528 kts | 68° |
| 2026-04-26 06:11 | 25.63515 | 54.36060 | 34906 ft | 538 kts | 83° |
| 2026-04-26 06:11 | 25.63276 | 54.40197 | 34899 ft | 545 kts | 99° |
| 2026-04-26 06:12 | 25.61077 | 54.48223 | 34911 ft | 546 kts | 108° |
| 2026-04-26 06:12 | 25.58563 | 54.56156 | 34908 ft | 545 kts | 108° |
| 2026-04-26 06:13 | 25.55148 | 54.63543 | 34898 ft | 543 kts | 133° |
| 2026-04-26 06:13 | 25.52381 | 54.66351 | 34886 ft | 535 kts | 150° |
| 2026-04-26 06:13 | 25.49153 | 54.68282 | 34897 ft | 526 kts | 165° |
| 2026-04-26 06:13 | 25.45653 | 54.69289 | 34893 ft | 511 kts | 180° |
| 2026-04-26 06:14 | 25.42157 | 54.69361 | 34901 ft | 496 kts | 194° |
| 2026-04-26 06:14 | 25.38826 | 54.68578 | 34897 ft | 482 kts | 207° |
| 2026-04-26 06:14 | 25.35818 | 54.67046 | 34893 ft | 469 kts | 220° |
| 2026-04-26 06:14 | 25.33272 | 54.64921 | 34899 ft | 453 kts | 232° |
| 2026-04-26 06:15 | 25.31230 | 54.62330 | 34901 ft | 441 kts | 243° |
| 2026-04-26 06:15 | 25.28831 | 54.56328 | 34903 ft | 422 kts | 263° |
| 2026-04-26 06:16 | 25.28682 | 54.49943 | 34895 ft | 412 kts | 282° |
| 2026-04-26 06:16 | 25.30138 | 54.43837 | 34904 ft | 411 kts | 288° |
| 2026-04-26 06:17 | 25.31825 | 54.37854 | 34905 ft | 410 kts | 289° |
| 2026-04-26 06:17 | 25.33589 | 54.31891 | 34919 ft | 410 kts | 289° |
| 2026-04-26 06:18 | 25.36277 | 54.26339 | 34918 ft | 411 kts | 307° |
| 2026-04-26 06:18 | 25.40667 | 54.22245 | 34916 ft | 420 kts | 326° |
| 2026-04-26 06:19 | 25.46296 | 54.20209 | 34915 ft | 438 kts | 347° |
| 2026-04-26 06:19 | 25.49393 | 54.20137 | 34914 ft | 451 kts | 357° |
| 2026-04-26 06:19 | 25.52533 | 54.20784 | 34913 ft | 464 kts | 9° |
| 2026-04-26 06:19 | 25.55526 | 54.22159 | 34908 ft | 477 kts | 21° |
| 2026-04-26 06:20 | 25.58293 | 54.24295 | 34906 ft | 492 kts | 34° |
| 2026-04-26 06:20 | 25.60616 | 54.27116 | 34902 ft | 506 kts | 47° |
| 2026-04-26 06:20 | 25.62362 | 54.30569 | 34903 ft | 523 kts | 62° |
| 2026-04-26 06:20 | 25.63354 | 54.34495 | 34900 ft | 534 kts | 77° |
| 2026-04-26 06:21 | 25.63461 | 54.38629 | 34890 ft | 541 kts | 94° |
| 2026-04-26 06:21 | 25.62700 | 54.42703 | 34909 ft | 546 kts | 105° |
| 2026-04-26 06:21 | 25.61536 | 54.46717 | 34905 ft | 546 kts | 108° |
| 2026-04-26 06:22 | 25.59033 | 54.54656 | 34904 ft | 546 kts | 108° |
| 2026-04-26 06:22 | 25.55999 | 54.62324 | 34892 ft | 543 kts | 127° |
| 2026-04-26 06:22 | 25.53515 | 54.65366 | 34892 ft | 539 kts | 143° |
| 2026-04-26 06:23 | 25.50386 | 54.67677 | 34892 ft | 529 kts | 160° |
| 2026-04-26 06:23 | 25.47015 | 54.69017 | 34893 ft | 515 kts | 174° |
| 2026-04-26 06:23 | 25.43858 | 54.69443 | 34890 ft | 504 kts | 187° |
| 2026-04-26 06:23 | 25.40454 | 54.69078 | 34892 ft | 488 kts | 201° |
| 2026-04-26 06:24 | 25.37258 | 54.67902 | 34892 ft | 474 kts | 214° |
| 2026-04-26 06:24 | 25.34471 | 54.66058 | 34895 ft | 459 kts | 226° |
| 2026-04-26 06:24 | 25.32177 | 54.63699 | 34892 ft | 446 kts | 237° |
| 2026-04-26 06:24 | 25.30398 | 54.60917 | 34895 ft | 437 kts | 248° |
| 2026-04-26 06:25 | 25.29192 | 54.57893 | 34892 ft | 426 kts | 258° |
| 2026-04-26 06:25 | 25.28483 | 54.51554 | 34894 ft | 415 kts | 278° |
| 2026-04-26 06:26 | 25.29706 | 54.45385 | 34896 ft | 411 kts | 288° |
| 2026-04-26 06:26 | 25.31376 | 54.39376 | 34894 ft | 411 kts | 289° |
| 2026-04-26 06:27 | 25.33135 | 54.33392 | 34906 ft | 409 kts | 289° |
| 2026-04-26 06:27 | 25.35405 | 54.27652 | 34907 ft | 409 kts | 302° |
| 2026-04-26 06:28 | 25.39379 | 54.23134 | 34907 ft | 417 kts | 321° |
| 2026-04-26 06:28 | 25.44736 | 54.20506 | 34907 ft | 432 kts | 341° |
| 2026-04-26 06:28 | 25.47765 | 54.20082 | 34903 ft | 444 kts | 352° |
| 2026-04-26 06:29 | 25.50884 | 54.20346 | 34902 ft | 456 kts | 3° |
| 2026-04-26 06:29 | 25.54000 | 54.21348 | 34897 ft | 470 kts | 15° |
| 2026-04-26 06:29 | 25.56886 | 54.23077 | 34907 ft | 485 kts | 27° |
| 2026-04-26 06:29 | 25.59488 | 54.25575 | 34904 ft | 500 kts | 40° |
| 2026-04-26 06:30 | 25.61568 | 54.28738 | 34901 ft | 516 kts | 55° |
| 2026-04-26 06:30 | 25.62951 | 54.32402 | 34903 ft | 526 kts | 70° |
| 2026-04-26 06:30 | 25.63527 | 54.36439 | 34899 ft | 537 kts | 85° |
| 2026-04-26 06:30 | 25.63196 | 54.40581 | 34901 ft | 544 kts | 101° |
| 2026-04-26 06:31 | 25.62172 | 54.44625 | 34914 ft | 545 kts | 107° |
| 2026-04-26 06:31 | 25.59700 | 54.52551 | 34907 ft | 544 kts | 108° |
| 2026-04-26 06:32 | 25.57066 | 54.60373 | 34887 ft | 543 kts | 118° |
| 2026-04-26 06:32 | 25.54941 | 54.63804 | 34899 ft | 543 kts | 134° |
| 2026-04-26 06:32 | 25.52124 | 54.66546 | 34893 ft | 534 kts | 151° |
| 2026-04-26 06:32 | 25.48860 | 54.68402 | 34894 ft | 523 kts | 166° |
| 2026-04-26 06:33 | 25.45376 | 54.69324 | 34890 ft | 510 kts | 181° |
| 2026-04-26 06:33 | 25.41863 | 54.69322 | 34896 ft | 495 kts | 195° |
| 2026-04-26 06:33 | 25.38569 | 54.68474 | 34899 ft | 481 kts | 208° |
| 2026-04-26 06:33 | 25.35588 | 54.66885 | 34895 ft | 466 kts | 221° |
| 2026-04-26 06:34 | 25.33100 | 54.64737 | 34899 ft | 453 kts | 232° |
| 2026-04-26 06:34 | 25.31091 | 54.62104 | 34899 ft | 441 kts | 244° |
| 2026-04-26 06:34 | 25.29653 | 54.59183 | 34896 ft | 431 kts | 254° |
| 2026-04-26 06:35 | 25.28470 | 54.52864 | 34897 ft | 417 kts | 274° |
| 2026-04-26 06:35 | 25.29395 | 54.46626 | 34906 ft | 411 kts | 287° |
| 2026-04-26 06:36 | 25.31039 | 54.40572 | 34906 ft | 411 kts | 289° |
| 2026-04-26 06:36 | 25.32775 | 54.34610 | 34905 ft | 410 kts | 289° |
| 2026-04-26 06:37 | 25.34819 | 54.28719 | 34919 ft | 410 kts | 298° |
| 2026-04-26 06:37 | 25.38450 | 54.23885 | 34912 ft | 415 kts | 317° |
| 2026-04-26 06:38 | 25.43540 | 54.20784 | 34907 ft | 428 kts | 336° |
| 2026-04-26 06:38 | 25.46495 | 54.20061 | 34905 ft | 439 kts | 347° |
| 2026-04-26 06:38 | 25.49598 | 54.19993 | 34904 ft | 449 kts | 357° |
| 2026-04-26 06:38 | 25.52688 | 54.20622 | 34899 ft | 459 kts | 9° |
| 2026-04-26 06:39 | 25.55645 | 54.21968 | 34890 ft | 457 kts | 20° |
| 2026-04-26 06:39 | 25.58256 | 54.23954 | 34878 ft | 455 kts | 33° |
| 2026-04-26 06:39 | 25.60423 | 54.26485 | 34853 ft | 452 kts | 45° |
| 2026-04-26 06:39 | 25.62049 | 54.29427 | 34833 ft | 448 kts | 58° |
| 2026-04-26 06:40 | 25.63079 | 54.32618 | 34814 ft | 442 kts | 71° |
| 2026-04-26 06:40 | 25.63535 | 54.36012 | 34419 ft | 444 kts | 83° |
| 2026-04-26 06:40 | 25.63398 | 54.39404 | 33689 ft | 452 kts | 96° |
| 2026-04-26 06:40 | 25.62663 | 54.42817 | 32695 ft | 464 kts | 106° |
| 2026-04-26 06:41 | 25.61632 | 54.46233 | 32002 ft | 468 kts | 108° |
| 2026-04-26 06:41 | 25.60584 | 54.49591 | 31754 ft | 459 kts | 109° |
| 2026-04-26 06:41 | 25.59545 | 54.52919 | 31530 ft | 450 kts | 109° |
| 2026-04-26 06:41 | 25.58630 | 54.56175 | 31219 ft | 444 kts | 102° |
| 2026-04-26 06:42 | 25.58181 | 54.59528 | 30898 ft | 437 kts | 92° |
| 2026-04-26 06:42 | 25.58238 | 54.62851 | 30546 ft | 430 kts | 82° |
| 2026-04-26 06:42 | 25.58623 | 54.66089 | 30194 ft | 425 kts | 82° |
| 2026-04-26 06:42 | 25.59044 | 54.69334 | 29797 ft | 422 kts | 82° |
| 2026-04-26 06:43 | 25.59455 | 54.72488 | 29445 ft | 417 kts | 83° |
| 2026-04-26 06:43 | 25.59863 | 54.75633 | 29120 ft | 412 kts | 84° |
| 2026-04-26 06:43 | 25.60268 | 54.78756 | 28735 ft | 408 kts | 84° |
| 2026-04-26 06:43 | 25.60663 | 54.81850 | 28293 ft | 405 kts | 86° |
| 2026-04-26 06:44 | 25.60748 | 54.84948 | 27791 ft | 401 kts | 97° |
| 2026-04-26 06:44 | 25.60320 | 54.87963 | 27230 ft | 398 kts | 109° |
| 2026-04-26 06:44 | 25.59420 | 54.90824 | 26679 ft | 396 kts | 116° |
| 2026-04-26 06:44 | 25.58355 | 54.93649 | 26122 ft | 397 kts | 116° |
| 2026-04-26 06:45 | 25.57272 | 54.96475 | 25545 ft | 399 kts | 116° |
| 2026-04-26 06:45 | 25.56190 | 54.99280 | 24981 ft | 400 kts | 116° |
| 2026-04-26 06:45 | 25.55101 | 55.02094 | 24426 ft | 401 kts | 116° |
| 2026-04-26 06:45 | 25.53843 | 55.04863 | 23852 ft | 400 kts | 123° |
| 2026-04-26 06:46 | 25.52479 | 55.07514 | 23285 ft | 401 kts | 123° |
| 2026-04-26 06:46 | 25.51092 | 55.10189 | 22714 ft | 402 kts | 123° |
| 2026-04-26 06:46 | 25.49704 | 55.12862 | 22154 ft | 403 kts | 123° |
| 2026-04-26 06:46 | 25.48314 | 55.15539 | 21557 ft | 404 kts | 122° |
| 2026-04-26 06:47 | 25.46911 | 55.18237 | 20942 ft | 405 kts | 123° |
| 2026-04-26 06:47 | 25.45290 | 55.20770 | 20323 ft | 401 kts | 133° |
| 2026-04-26 06:47 | 25.43446 | 55.23083 | 19733 ft | 401 kts | 135° |
| 2026-04-26 06:47 | 25.41596 | 55.25360 | 19140 ft | 401 kts | 135° |
| 2026-04-26 06:48 | 25.39718 | 55.27666 | 18554 ft | 401 kts | 135° |
| 2026-04-26 06:48 | 25.37894 | 55.29906 | 17897 ft | 393 kts | 135° |
| 2026-04-26 06:48 | 25.36095 | 55.32158 | 17322 ft | 385 kts | 130° |
| 2026-04-26 06:48 | 25.34606 | 55.34575 | 16757 ft | 377 kts | 124° |
| 2026-04-26 06:49 | 25.33245 | 55.37006 | 16199 ft | 369 kts | 123° |
| 2026-04-26 06:49 | 25.31912 | 55.39397 | 15658 ft | 362 kts | 123° |
| 2026-04-26 06:49 | 25.30607 | 55.41737 | 15112 ft | 361 kts | 123° |
| 2026-04-26 06:49 | 25.29289 | 55.44100 | 14546 ft | 359 kts | 123° |
| 2026-04-26 06:50 | 25.27988 | 55.46432 | 13986 ft | 358 kts | 123° |
| 2026-04-26 06:50 | 25.26685 | 55.48768 | 13423 ft | 356 kts | 123° |
| 2026-04-26 06:50 | 25.25397 | 55.51084 | 12865 ft | 354 kts | 123° |
| 2026-04-26 06:50 | 25.24123 | 55.53374 | 12309 ft | 353 kts | 123° |
| 2026-04-26 06:51 | 25.22843 | 55.55674 | 11750 ft | 351 kts | 123° |
| 2026-04-26 06:51 | 25.20303 | 55.60236 | 10635 ft | 348 kts | 122° |
| 2026-04-26 06:51 | 25.19035 | 55.62513 | 10075 ft | 346 kts | 123° |
| 2026-04-26 06:52 | 25.17788 | 55.64755 | 9524 ft | 344 kts | 123° |
| 2026-04-26 06:52 | 25.16542 | 55.66991 | 8972 ft | 343 kts | 123° |
| 2026-04-26 06:52 | 25.15300 | 55.69221 | 8419 ft | 342 kts | 123° |
| 2026-04-26 06:52 | 25.14055 | 55.71452 | 7891 ft | 340 kts | 123° |
| 2026-04-26 06:53 | 25.12815 | 55.73672 | 7332 ft | 339 kts | 122° |
| 2026-04-26 06:53 | 25.11604 | 55.75840 | 7068 ft | 328 kts | 122° |
| 2026-04-26 06:53 | 25.10435 | 55.77932 | 7047 ft | 310 kts | 122° |
| 2026-04-26 06:53 | 25.09337 | 55.79895 | 7040 ft | 294 kts | 122° |
| 2026-04-26 06:54 | 25.08295 | 55.81757 | 7047 ft | 280 kts | 123° |
| 2026-04-26 06:54 | 25.07054 | 55.83321 | 7026 ft | 264 kts | 148° |
| 2026-04-26 06:54 | 25.05369 | 55.84102 | 7038 ft | 263 kts | 169° |
| 2026-04-26 06:54 | 25.03563 | 55.84179 | 7028 ft | 258 kts | 194° |
| 2026-04-26 06:55 | 25.01893 | 55.83490 | 6689 ft | 259 kts | 219° |
| 2026-04-26 06:55 | 25.00746 | 55.82019 | 6389 ft | 248 kts | 249° |
| 2026-04-26 06:55 | 25.00440 | 55.80218 | 6186 ft | 235 kts | 278° |
| 2026-04-26 06:55 | 25.00951 | 55.78588 | 6077 ft | 222 kts | 305° |
| 2026-04-26 06:56 | 25.02050 | 55.77448 | 5905 ft | 215 kts | 321° |
| 2026-04-26 06:56 | 25.03059 | 55.76276 | 5741 ft | 209 kts | 305° |
| 2026-04-26 06:56 | 25.03856 | 55.74941 | 5527 ft | 208 kts | 302° |
| 2026-04-26 06:56 | 25.04607 | 55.73596 | 5317 ft | 203 kts | 301° |
| 2026-04-26 06:57 | 25.05340 | 55.72281 | 5041 ft | 203 kts | 301° |
| 2026-04-26 06:57 | 25.06076 | 55.70963 | 4733 ft | 201 kts | 302° |
| 2026-04-26 06:57 | 25.06811 | 55.69646 | 4427 ft | 199 kts | 302° |
| 2026-04-26 06:57 | 25.07524 | 55.68368 | 4120 ft | 196 kts | 302° |
| 2026-04-26 06:58 | 25.08236 | 55.67094 | 3779 ft | 195 kts | 302° |
| 2026-04-26 06:58 | 25.08947 | 55.65818 | 3417 ft | 196 kts | 302° |
| 2026-04-26 06:58 | 25.09663 | 55.64535 | 3039 ft | 197 kts | 302° |
| 2026-04-26 06:58 | 25.10385 | 55.63239 | 2635 ft | 197 kts | 302° |
| 2026-04-26 06:59 | 25.11087 | 55.61980 | 2253 ft | 194 kts | 302° |
| 2026-04-26 06:59 | 25.11782 | 55.60730 | 2050 ft | 184 kts | 302° |
| 2026-04-26 06:59 | 25.12425 | 55.59577 | 2022 ft | 171 kts | 302° |
| 2026-04-26 06:59 | 25.13059 | 55.58441 | 2028 ft | 176 kts | 302° |
| 2026-04-26 07:00 | 25.13699 | 55.57291 | 2025 ft | 175 kts | 302° |
| 2026-04-26 07:00 | 25.14334 | 55.56148 | 2022 ft | 175 kts | 302° |
| 2026-04-26 07:00 | 25.14975 | 55.54995 | 2021 ft | 175 kts | 302° |
| 2026-04-26 07:00 | 25.15616 | 55.53844 | 2030 ft | 177 kts | 302° |
| 2026-04-26 07:01 | 25.16251 | 55.52705 | 2020 ft | 174 kts | 302° |
| 2026-04-26 07:01 | 25.16883 | 55.51568 | 2018 ft | 169 kts | 302° |
| 2026-04-26 07:01 | 25.17471 | 55.50510 | 2008 ft | 159 kts | 302° |
| 2026-04-26 07:01 | 25.18034 | 55.49436 | 1992 ft | 163 kts | 300° |
| 2026-04-26 07:02 | 25.18607 | 55.48363 | 1776 ft | 158 kts | 303° |
| 2026-04-26 07:02 | 25.19179 | 55.47361 | 1578 ft | 146 kts | 303° |
| 2026-04-26 07:02 | 25.19685 | 55.46462 | 1412 ft | 134 kts | 302° |
| 2026-04-26 07:02 | 25.20179 | 55.45581 | 1252 ft | 135 kts | 302° |
| 2026-04-26 07:03 | 25.20675 | 55.44691 | 1090 ft | 137 kts | 302° |
| 2026-04-26 07:03 | 25.21175 | 55.43796 | 923 ft | 139 kts | 303° |
| 2026-04-26 07:03 | 25.21708 | 55.42887 | 734 ft | 141 kts | 301° |
| 2026-04-26 07:03 | 25.22223 | 55.41943 | 566 ft | 142 kts | 302° |
| 2026-04-26 07:04 | 25.22744 | 55.41007 | 384 ft | 144 kts | 302° |
| 2026-04-26 07:04 | 25.23258 | 55.40087 | 191 ft | 138 kts | 302° |
| 2026-04-26 07:04 | 25.23753 | 55.39193 | 78 ft | 129 kts | 301° |
| 2026-04-26 07:04 | 25.24161 | 55.38461 | 77 ft | 90 kts | 302° |
| 2026-04-26 07:05 | 25.24368 | 55.38090 | 76 ft | 38 kts | 301° |
| 2026-04-26 07:05 | 25.24492 | 55.37864 | 76 ft | 17 kts | 302° |
| 2026-04-26 07:05 | 25.24553 | 55.37754 | 76 ft | 15 kts | 302° |
| 2026-04-26 07:05 | 25.24620 | 55.37632 | 76 ft | 21 kts | 301° |
| 2026-04-26 07:06 | 25.24702 | 55.37483 | 76 ft | 25 kts | 302° |
| 2026-04-26 07:06 | 25.24801 | 55.37309 | 76 ft | 26 kts | 302° |
| 2026-04-26 07:06 | 25.24888 | 55.37147 | 76 ft | 20 kts | 301° |
| 2026-04-26 07:06 | 25.24960 | 55.37019 | 76 ft | 18 kts | 302° |
| 2026-04-26 07:07 | 25.25005 | 55.36893 | 76 ft | 16 kts | 278° |
| 2026-04-26 07:07 | 25.25017 | 55.36774 | 76 ft | 14 kts | 274° |
| 2026-04-26 07:07 | 25.25023 | 55.36665 | 76 ft | 13 kts | 274° |
| 2026-04-26 07:07 | 25.25025 | 55.36566 | 76 ft | 12 kts | 271° |
| 2026-04-26 07:08 | 25.25012 | 55.36486 | 76 ft | 8 kts | 219° |
| 2026-04-26 07:08 | 25.24962 | 55.36452 | 76 ft | 8 kts | 211° |
| 2026-04-26 07:08 | 25.24911 | 55.36418 | 76 ft | 8 kts | 211° |
| 2026-04-26 07:08 | 25.24862 | 55.36386 | 76 ft | 4 kts | 211° |
| 2026-04-26 07:09 | 25.24844 | 55.36373 | 76 ft | 0 kts | 211° |